M I D A S
Marine Information and Data Acquisition System
Tripno 1773 of the Zeeleeuw from 2009-09-09 06:36:56 to 2009-09-09 15:09:02
Back to CruiseResearch ActivitiesStationsMapUnderway DataData graphs

EquipmentUnitsComment
TimeDGPSUTC
LatitudeDGPSDM.mWGS84
LongitudeDGPSDM.mWGS84
TemperatureSBE03/SBE38deg celciusITS90
ConductivitySBE21S/mITS90
SalinitySBE21 Practical Salinity Units
ChlorophylAChelsea fluorimeterg/lCalibrated in Aceton
Missing or incorrect values are displayed as -999
Sea surface data collected by the RV Zeeleeuw from 2009-09-09 06:28:54 to 2009-09-09 15:19:10
                                                                                    Next 1000 lines
Time Latitude Longitude Temperature Conductivity Salinity ChlorophylA
2009-09-09 06:29:04 51°13.662 2°55.956 21.7367 0.045397 0.230666 17.177588
2009-09-09 06:29:09 51°13.662 2°55.953 21.7672 0.044883 0.228005 17.177588
2009-09-09 06:29:14 51°13.663 2°55.949 21.814 0.045397 0.230666 17.177588
2009-09-09 06:29:19 51°13.664 2°55.944 21.798 0.045912 0.233325 17.177588
2009-09-09 06:29:24 51°13.665 2°55.939 21.7731 0.045912 0.233325 17.177588
2009-09-09 06:29:30 51°13.666 2°55.932 21.7921 0.045294 0.230138 17.177588
2009-09-09 06:29:36 51°13.668 2°55.924 21.7974 0.045603 0.231733 17.177588
2009-09-09 06:29:42 51°13.671 2°55.915 21.7983 0.045603 0.231737 17.142764
2009-09-09 06:29:47 51°13.672 2°55.908 21.7982 0.0455 0.231205 17.142764
2009-09-09 06:29:53 51°13.675 2°55.899 21.7925 0.045603 0.231737 17.142764
2009-09-09 06:29:58 51°13.678 2°55.89 21.7916 0.045603 0.231737 17.142764
2009-09-09 06:30:03 51°13.68 2°55.882 21.8073 0.0455 0.231205 17.142764
2009-09-09 06:30:08 51°13.683 2°55.873 21.8152 0.045809 0.232804 17.142764
2009-09-09 06:30:13 51°13.686 2°55.865 21.8162 0.045809 0.232807 17.142764
2009-09-09 06:30:18 51°13.688 2°55.857 21.8103 0.045912 0.233343 17.142764
2009-09-09 06:30:22 51°13.69 2°55.851 21.8115 0.045809 0.232815 17.142764
2009-09-09 06:30:28 51°13.693 2°55.841 21.8059 0.045809 0.232815 17.142764
2009-09-09 06:30:33 51°13.696 2°55.833 21.8221 0.045809 0.232815 17.142764
2009-09-09 06:30:38 51°13.698 2°55.826 21.808 0.045603 0.231755 17.10794
2009-09-09 06:30:43 51°13.701 2°55.819 21.8015 0.045706 0.232287 17.142764
2009-09-09 06:30:48 51°13.705 2°55.811 21.8071 0.0455 0.231227 17.10794
2009-09-09 06:30:53 51°13.708 2°55.804 21.8058 0.045603 0.231759 17.142764
2009-09-09 06:30:58 51°13.711 2°55.797 21.8184 0.045603 0.231759 17.142764
2009-09-09 06:31:03 51°13.715 2°55.79 21.8131 0.046221 0.234954 17.10794
2009-09-09 06:31:08 51°13.718 2°55.784 21.8231 0.045912 0.233362 17.10794
2009-09-09 06:31:13 51°13.722 2°55.779 21.8278 0.046324 0.235494 17.10794
2009-09-09 06:31:18 51°13.725 2°55.774 21.8244 0.046735 0.237627 17.10794
2009-09-09 06:31:23 51°13.726 2°55.77 21.8129 0.046221 0.234973 17.10794
2009-09-09 06:31:27 51°13.728 2°55.768 21.8221 0.046221 0.234973 17.10794
2009-09-09 06:31:32 51°13.73 2°55.765 21.8095 0.046426 0.236037 17.10794
2009-09-09 06:31:37 51°13.732 2°55.762 21.7982 0.045809 0.232844 17.10794
2009-09-09 06:31:42 51°13.734 2°55.759 21.7774 0.045912 0.23338 17.10794
2009-09-09 06:31:46 51°13.736 2°55.755 21.7811 0.0455 0.231249 17.073116
2009-09-09 06:31:51 51°13.739 2°55.751 21.7952 0.045706 0.232312 17.10794
2009-09-09 06:31:56 51°13.742 2°55.747 21.8135 0.045706 0.232312 17.10794
2009-09-09 06:32:02 51°13.746 2°55.741 21.7962 0.045809 0.232848 17.10794
2009-09-09 06:32:07 51°13.749 2°55.736 21.8062 0.045706 0.23232 17.073116
2009-09-09 06:32:13 51°13.754 2°55.731 21.8058 0.045706 0.23232 17.073116
2009-09-09 06:32:18 51°13.758 2°55.725 21.809 0.045912 0.233387 17.073116
2009-09-09 06:32:23 51°13.762 2°55.72 21.8122 0.045809 0.232859 17.073116
2009-09-09 06:32:28 51°13.766 2°55.715 21.8168 0.045809 0.232859 17.073116
2009-09-09 06:32:33 51°13.77 2°55.709 21.8187 0.046015 0.233919 17.073116
2009-09-09 06:32:38 51°13.774 2°55.704 21.8176 0.045809 0.232863 17.073116
2009-09-09 06:32:42 51°13.777 2°55.699 21.8164 0.045603 0.231799 17.073116
2009-09-09 06:32:48 51°13.782 2°55.693 21.8107 0.045809 0.232863 17.073116
2009-09-09 06:32:53 51°13.786 2°55.687 21.8133 0.0455 0.231267 17.073116
2009-09-09 06:32:58 51°13.791 2°55.681 21.8123 0.0455 0.231267 17.073116
2009-09-09 06:33:03 51°13.796 2°55.676 21.8098 0.045603 0.231803 17.073116
2009-09-09 06:33:08 51°13.8 2°55.67 21.8142 0.045706 0.232338 17.038292
2009-09-09 06:33:13 51°13.805 2°55.664 21.8148 0.045603 0.231806 17.038292
2009-09-09 06:33:18 51°13.81 2°55.659 21.8101 0.045603 0.23181 17.038292
2009-09-09 06:33:23 51°13.815 2°55.654 21.8127 0.045397 0.230746 17.038292
2009-09-09 06:33:28 51°13.82 2°55.649 21.8177 0.045397 0.230746 17.038292
2009-09-09 06:33:33 51°13.825 2°55.644 21.8148 0.0455 0.231278 17.038292
2009-09-09 06:33:38 51°13.83 2°55.64 21.8076 0.045294 0.230218 17.038292
2009-09-09 06:33:43 51°13.836 2°55.636 21.8209 0.045603 0.231814 17.038292
2009-09-09 06:33:48 51°13.841 2°55.633 21.8277 0.045294 0.230222 17.038292
2009-09-09 06:33:53 51°13.847 2°55.631 21.8558 0.046118 0.234481 17.038292
2009-09-09 06:33:58 51°13.852 2°55.628 21.823 0.046118 0.234481 17.038292
2009-09-09 06:34:03 51°13.857 2°55.626 21.8228 0.046529 0.236626 17.003468
2009-09-09 06:34:08 51°13.862 2°55.625 21.8292 0.046118 0.2345 17.038292
2009-09-09 06:34:13 51°13.867 2°55.624 21.826 0.046221 0.235032 17.003468
2009-09-09 06:34:18 51°13.872 2°55.624 21.8268 0.046324 0.235565 17.003468
2009-09-09 06:34:23 51°13.876 2°55.624 21.8243 0.046426 0.236097 17.003468
2009-09-09 06:34:28 51°13.88 2°55.624 21.8078 0.046426 0.236097 17.003468
2009-09-09 06:34:33 51°13.884 2°55.625 21.8238 0.045912 0.233439 17.003468
2009-09-09 06:34:38 51°13.888 2°55.625 21.8241 0.046015 0.233971 17.003468
2009-09-09 06:34:43 51°13.891 2°55.626 21.8192 0.046529 0.236637 17.003468
2009-09-09 06:34:48 51°13.895 2°55.628 21.8309 0.046221 0.235047 17.003468
2009-09-09 06:34:53 51°13.898 2°55.629 21.8344 0.046324 0.23558 17.003468
2009-09-09 06:34:58 51°13.901 2°55.631 21.8257 0.046324 0.23558 17.003468
2009-09-09 06:35:02 51°13.903 2°55.632 21.8334 0.046118 0.234518 17.003468
2009-09-09 06:35:08 51°13.905 2°55.633 21.8478 0.046735 0.237721 17.003468
2009-09-09 06:35:12 51°13.907 2°55.634 21.8406 0.046015 0.233997 17.003468
2009-09-09 06:35:17 51°13.908 2°55.635 21.8483 0.046324 0.235591 17.003468
2009-09-09 06:35:22 51°13.909 2°55.635 21.8495 0.047147 0.23986 17.003468
2009-09-09 06:35:26 51°13.909 2°55.635 21.8032 0.047147 0.23986 17.003468
2009-09-09 06:35:32 51°13.909 2°55.633 21.811 0.046221 0.235073 16.968644
2009-09-09 06:35:36 51°13.909 2°55.631 21.7919 0.046838 0.238269 16.968644
2009-09-09 06:35:41 51°13.908 2°55.629 21.7602 0.046529 0.236667 17.003468
2009-09-09 06:35:46 51°13.908 2°55.627 21.7729 0.046118 0.234537 16.968644
2009-09-09 06:35:50 51°13.908 2°55.625 21.7657 0.045294 0.230273 16.968644
2009-09-09 06:35:56 51°13.908 2°55.624 21.8009 0.045294 0.230273 16.968644
2009-09-09 06:36:00 51°13.907 2°55.624 21.7985 0.047353 0.24093 16.968644
2009-09-09 06:36:05 51°13.908 2°55.625 21.7732 0.047456 0.241471 16.968644
2009-09-09 06:36:10 51°13.908 2°55.626 21.7886 0.045397 0.230819 16.968644
2009-09-09 06:36:14 51°13.908 2°55.626 21.805 0.046735 0.237744 16.968644
2009-09-09 06:36:19 51°13.907 2°55.628 21.7878 0.047456 0.241486 16.968644
2009-09-09 06:36:24 51°13.907 2°55.631 21.7397 0.047456 0.241486 16.968644
2009-09-09 06:36:29 51°13.907 2°55.633 21.7673 0.048588 0.247372 16.968644
2009-09-09 06:36:34 51°13.907 2°55.635 21.8106 0.048073 0.244695 16.968644
2009-09-09 06:36:39 51°13.907 2°55.637 21.766 0.049514 0.252168 16.968644
2009-09-09 06:36:44 51°13.906 2°55.635 21.7789 0.046941 0.238817 16.933819
2009-09-09 06:36:49 51°13.906 2°55.632 21.6863 0.046015 0.234008 16.933819
2009-09-09 06:36:54 51°13.906 2°55.628 21.6842 0.046015 0.234008 16.933819
2009-09-09 06:36:59 51°13.907 2°55.623 21.7016 0.046015 0.233997 16.968644
2009-09-09 06:37:05 51°13.909 2°55.616 21.6448 0.0455 0.231333 16.968644
2009-09-09 06:37:09 51°13.911 2°55.611 21.6753 0.0455 0.231333 17.003468
2009-09-09 06:37:14 51°13.913 2°55.605 21.7025 0.046632 0.237203 16.968644
2009-09-09 06:37:19 51°13.916 2°55.599 21.7459 0.048896 0.248962 17.003468
2009-09-09 06:37:25 51°13.921 2°55.593 21.8034 0.048896 0.248962 17.003468
2009-09-09 06:37:29 51°13.924 2°55.589 21.7732 0.056614 0.289378 16.968644
2009-09-09 06:37:34 51°13.929 2°55.582 21.7885 0.057335 0.293188 17.003468
2009-09-09 06:37:39 51°13.935 2°55.576 21.7876 0.056923 0.291051 16.968644
2009-09-09 06:37:44 51°13.942 2°55.569 21.7673 0.057335 0.293207 16.968644
2009-09-09 06:37:49 51°13.95 2°55.562 21.7631 0.057541 0.294262 16.968644
2009-09-09 06:37:54 51°13.958 2°55.554 21.7643 0.057541 0.294262 16.968644
2009-09-09 06:37:59 51°13.966 2°55.547 21.7832 0.057129 0.292082 16.968644
2009-09-09 06:38:04 51°13.974 2°55.539 21.7589 0.057746 0.295298 16.968644
2009-09-09 06:38:09 51°13.983 2°55.53 21.7733 0.054659 0.279119 16.933819
2009-09-09 06:38:14 51°13.993 2°55.522 21.7516 0.056614 0.289331 16.968644
2009-09-09 06:38:19 51°14.002 2°55.512 21.7668 0.054865 0.280167 16.933819
2009-09-09 06:38:25 51°14.013 2°55.502 21.7584 0.054865 0.280167 16.933819
2009-09-09 06:38:29 51°14.021 2°55.495 21.7601 0.055688 0.28448 16.968644
2009-09-09 06:38:34 51°14.031 2°55.486 21.7809 0.055791 0.285019 16.933819
2009-09-09 06:38:39 51°14.041 2°55.477 21.761 0.055688 0.284489 16.933819
2009-09-09 06:38:45 51°14.052 2°55.467 21.7913 0.056717 0.28987 16.933819
2009-09-09 06:38:49 51°14.061 2°55.459 21.7697 0.055277 0.282332 16.933819
2009-09-09 06:38:54 51°14.07 2°55.45 21.7902 0.055277 0.282332 16.933819
2009-09-09 06:38:58 51°14.078 2°55.443 21.7598 0.056203 0.287172 16.933819
2009-09-09 06:39:04 51°14.091 2°55.433 21.7981 0.054762 0.279647 16.933819
2009-09-09 06:39:09 51°14.101 2°55.424 21.7849 0.055585 0.283965 16.933819
2009-09-09 06:39:14 51°14.111 2°55.415 21.7705 0.054556 0.278585 16.933819
2009-09-09 06:39:19 51°14.121 2°55.406 21.7936 0.05682 0.290432 16.898995
2009-09-09 06:39:25 51°14.134 2°55.395 21.7853 0.05682 0.290432 16.898995
2009-09-09 06:39:29 51°14.142 2°55.387 21.8027 0.055791 0.285051 16.933819
2009-09-09 06:39:34 51°14.153 2°55.378 21.8106 0.058055 0.296936 16.898995
2009-09-09 06:39:39 51°14.163 2°55.368 21.7718 0.057026 0.291571 16.898995
2009-09-09 06:39:44 51°14.172 2°55.357 21.7684 0.055791 0.285069 16.898995
2009-09-09 06:39:49 51°14.182 2°55.346 21.7555 0.056409 0.288282 16.898995
2009-09-09 06:39:54 51°14.192 2°55.335 21.8 0.056409 0.288282 16.898995
2009-09-09 06:39:59 51°14.202 2°55.324 21.8145 0.05857 0.299601 16.898995
2009-09-09 06:40:05 51°14.212 2°55.31 21.7908 0.060525 0.309876 16.898995
2009-09-09 06:40:10 51°14.221 2°55.297 21.7574 0.058261 0.297905 16.898995
2009-09-09 06:40:14 51°14.228 2°55.286 21.7935 0.05929 0.303278 16.898995
2009-09-09 06:40:19 51°14.236 2°55.273 21.7965 0.05857 0.299548 16.898995
2009-09-09 06:40:24 51°14.244 2°55.26 21.7807 0.05857 0.299548 16.898995
2009-09-09 06:40:29 51°14.252 2°55.245 21.7656 0.056717 0.290599 16.864171
2009-09-09 06:40:34 51°14.26 2°55.231 21.7837 0.05682 0.291088 16.864171
2009-09-09 06:40:39 51°14.268 2°55.215 21.7638 0.057643 0.29512 16.864171
2009-09-09 06:40:44 51°14.276 2°55.2 21.7806 0.056409 0.288634 16.864171
2009-09-09 06:40:49 51°14.284 2°55.185 21.7745 0.058261 0.298694 16.864171
2009-09-09 06:40:54 51°14.292 2°55.17 21.7745 0.058261 0.298694 16.864171
2009-09-09 06:40:59 51°14.3 2°55.154 21.7611 0.0561 0.287396 16.864171
2009-09-09 06:41:04 51°14.307 2°55.138 21.7846 0.057952 0.297182 16.864171
2009-09-09 06:41:09 51°14.315 2°55.122 21.7881 0.058055 0.297646 16.864171
2009-09-09 06:41:14 51°14.322 2°55.105 21.7515 0.056923 0.291845 16.864171
2009-09-09 06:41:19 51°14.329 2°55.088 21.7906 0.058878 0.302351 16.864171
2009-09-09 06:41:25 51°14.338 2°55.067 21.7358 0.058878 0.302351 16.864171
2009-09-09 06:41:29 51°14.343 2°55.052 21.7683 0.055585 0.284876 16.829347
2009-09-09 06:41:34 51°14.35 2°55.034 21.7841 0.058261 0.299221 16.829347
2009-09-09 06:41:39 51°14.356 2°55.016 21.7417 0.05857 0.300837 16.829347
2009-09-09 06:41:45 51°14.364 2°54.993 21.753 0.05682 0.291719 16.829347
2009-09-09 06:41:49 51°14.37 2°54.977 21.7583 0.057746 0.296762 16.794523
2009-09-09 06:41:54 51°14.376 2°54.957 21.7692 0.057746 0.296762 16.794523
2009-09-09 06:41:59 51°14.382 2°54.938 21.7848 0.057438 0.295116 16.794523
2009-09-09 06:42:04 51°14.388 2°54.917 21.7954 0.060525 0.311354 16.829347
2009-09-09 06:42:09 51°14.393 2°54.895 21.8087 0.06001 0.308868 16.794523
2009-09-09 06:42:14 51°14.397 2°54.873 21.7796 0.060628 0.312329 16.794523
2009-09-09 06:42:19 51°14.399 2°54.849 21.7617 0.057232 0.294428 16.794523
2009-09-09 06:42:25 51°14.401 2°54.82 21.7617 0.057232 0.294428 16.794523
2009-09-09 06:42:30 51°14.402 2°54.795 21.7952 0.060216 0.310067 16.794523
2009-09-09 06:42:34 51°14.403 2°54.776 21.7972 0.064538 0.333066 16.794523
2009-09-09 06:42:39 51°14.403 2°54.75 21.8051 0.062172 0.320693 16.794523
2009-09-09 06:42:44 51°14.402 2°54.725 21.798 0.057746 0.297597 16.794523
2009-09-09 06:42:49 51°14.4 2°54.7 21.777 0.060113 0.310189 16.759699
2009-09-09 06:42:54 51°14.396 2°54.675 21.7272 0.060113 0.310189 16.759699
2009-09-09 06:42:58 51°14.392 2°54.656 21.7013 0.05929 0.30582 16.759699
2009-09-09 06:43:04 51°14.386 2°54.626 21.7221 0.053321 0.274024 16.759699
2009-09-09 06:43:09 51°14.381 2°54.602 21.6959 0.052189 0.267982 16.759699
2009-09-09 06:43:14 51°14.375 2°54.578 21.7849 0.049617 0.25444 18.187485
2009-09-09 06:43:19 51°14.369 2°54.553 21.6903 0.060731 0.313001 25.535361
2009-09-09 06:43:25 51°14.361 2°54.524 21.7086 0.060731 0.313001 25.535361
2009-09-09 06:43:29 51°14.357 2°54.504 21.7265 0.069478 0.35983 24.769232
2009-09-09 06:43:34 51°14.351 2°54.48 21.6824 0.067934 0.351256 24.908528
2009-09-09 06:43:39 51°14.345 2°54.455 21.817 0.08687 0.453069 24.525463
2009-09-09 06:43:45 51°14.338 2°54.425 21.6808 0.065876 0.340411 24.699583
2009-09-09 06:43:49 51°14.333 2°54.406 21.772 0.088208 0.460247 24.734408
2009-09-09 06:43:54 51°14.329 2°54.381 21.732 0.088208 0.460247 24.734408
2009-09-09 06:43:59 51°14.321 2°54.356 21.6678 0.075138 0.389946 24.734408
2009-09-09 06:44:05 51°14.315 2°54.327 21.8036 0.071536 0.370818 24.804056
2009-09-09 06:44:09 51°14.31 2°54.308 21.6542 0.112805 0.594456 25.605009
2009-09-09 06:44:14 51°14.303 2°54.283 21.7855 0.099426 0.521857 24.525463
2009-09-09 06:44:19 51°14.298 2°54.259 21.6837 0.087282 0.455784 25.082648
2009-09-09 06:44:24 51°14.29 2°54.235 21.7085 0.087282 0.455784 25.082648
2009-09-09 06:44:29 51°14.285 2°54.21 21.7424 0.114863 0.606312 24.734408
2009-09-09 06:44:34 51°14.278 2°54.187 21.73 0.079049 0.411318 24.873704
2009-09-09 06:44:39 51°14.272 2°54.162 21.7392 0.085224 0.444545 24.83888
2009-09-09 06:44:44 51°14.266 2°54.138 21.6856 0.088105 0.46017 25.396065
2009-09-09 06:44:49 51°14.259 2°54.114 21.7532 0.085635 0.447043 24.83888
2009-09-09 06:44:54 51°14.253 2°54.09 21.6848 0.085635 0.447043 24.83888
2009-09-09 06:44:59 51°14.247 2°54.066 21.7623 0.089546 0.468267 25.36124
2009-09-09 06:45:04 51°14.241 2°54.041 21.6704 0.087282 0.455882 25.117472
2009-09-09 06:45:09 51°14.234 2°54.017 21.7373 0.081313 0.423331 25.535361
2009-09-09 06:45:14 51°14.229 2°53.992 21.6939 0.077608 0.403665 25.570185
2009-09-09 06:45:19 51°14.222 2°53.968 21.6849 0.095 0.497686 25.709481
2009-09-09 06:45:25 51°14.215 2°53.938 21.707 0.095 0.497686 25.709481
2009-09-09 06:45:29 51°14.21 2°53.919 21.7401 0.066391 0.343648 25.813953
2009-09-09 06:45:34 51°14.204 2°53.894 21.7434 0.068758 0.35615 25.953249
2009-09-09 06:45:39 51°14.197 2°53.869 21.7099 0.06104 0.314943 26.057722
2009-09-09 06:45:45 51°14.19 2°53.84 21.7395 0.070096 0.363216 26.231842
2009-09-09 06:45:49 51°14.184 2°53.82 21.712 0.065773 0.340292 26.371138
2009-09-09 06:45:54 51°14.178 2°53.795 21.7477 0.065773 0.340292 26.371138
2009-09-09 06:45:58 51°14.173 2°53.775 21.7439 0.074521 0.38695 26.440786
2009-09-09 06:46:04 51°14.165 2°53.745 21.7401 0.070919 0.367735 26.580082
2009-09-09 06:46:09 51°14.159 2°53.721 21.7428 0.066802 0.345893 26.858675
2009-09-09 06:46:14 51°14.152 2°53.696 21.7473 0.062995 0.325595 27.137267
2009-09-09 06:46:19 51°14.146 2°53.672 21.7679 0.084606 0.441605 27.137267
2009-09-09 06:46:25 51°14.138 2°53.643 21.7087 0.084606 0.441605 27.137267
2009-09-09 06:46:29 51°14.133 2°53.623 21.7321 0.085327 0.445706 27.276563
2009-09-09 06:46:34 51°14.125 2°53.599 21.7436 0.069684 0.361344 27.450684
2009-09-09 06:46:39 51°14.118 2°53.576 21.7512 0.134932 0.717832 27.555156
2009-09-09 06:46:44 51°14.11 2°53.552 21.6909 0.065979 0.341809 27.659628
2009-09-09 06:46:49 51°14.102 2°53.529 21.7262 0.071639 0.371968 27.833748
2009-09-09 06:46:54 51°14.094 2°53.507 21.7347 0.071639 0.371968 27.833748
2009-09-09 06:46:59 51°14.086 2°53.484 21.7493 0.069067 0.358162 27.973045
2009-09-09 06:47:04 51°14.077 2°53.461 21.6985 0.085944 0.44895 28.216813
2009-09-09 06:47:09 51°14.069 2°53.439 21.7497 0.061554 0.318148 28.251637
2009-09-09 06:47:14 51°14.06 2°53.417 21.7235 0.081313 0.42399 28.390933
2009-09-09 06:47:19 51°14.051 2°53.394 21.7256 0.075653 0.393579 28.530229
2009-09-09 06:47:25 51°14.042 2°53.367 21.7323 0.075653 0.393579 28.530229
2009-09-09 06:47:29 51°14.034 2°53.35 21.7103 0.066185 0.342906 28.599877
2009-09-09 06:47:34 51°14.025 2°53.328 21.7348 0.069478 0.360499 28.913294
2009-09-09 06:47:39 51°14.016 2°53.305 21.7454 0.058055 0.299673 28.913294
2009-09-09 06:47:44 51°14.007 2°53.283 21.7651 0.069787 0.362084 28.982942
2009-09-09 06:47:49 51°13.998 2°53.262 21.6644 0.116716 0.617193 29.749071
2009-09-09 06:47:54 51°13.988 2°53.24 21.7845 0.116716 0.617193 29.749071
2009-09-09 06:47:59 51°13.98 2°53.218 21.6884 0.069684 0.361629 29.122238
2009-09-09 06:48:04 51°13.97 2°53.197 21.764 0.138843 0.740056 29.923192
2009-09-09 06:48:09 51°13.963 2°53.173 21.7239 0.079461 0.414334 29.366007
2009-09-09 06:48:14 51°13.953 2°53.153 21.7208 0.068964 0.357836 29.540127
2009-09-09 06:48:19 51°13.943 2°53.131 21.7616 0.075962 0.395329 29.574951
2009-09-09 06:48:25 51°13.933 2°53.105 21.7403 0.075962 0.395329 29.574951
2009-09-09 06:48:29 51°13.925 2°53.088 21.7145 0.068758 0.356689 29.644599
2009-09-09 06:48:34 51°13.917 2°53.065 21.7389 0.068964 0.357754 29.818719
2009-09-09 06:48:39 51°13.908 2°53.043 21.7273 0.072977 0.379361 29.853543
2009-09-09 06:48:45 51°13.898 2°53.017 21.7348 0.117025 0.619195 30.097312
2009-09-09 06:48:49 51°13.892 2°52.998 21.7069 0.078946 0.41158 30.027664
2009-09-09 06:48:54 51°13.883 2°52.976 21.7372 0.078946 0.41158 30.027664
2009-09-09 06:48:58 51°13.877 2°52.957 21.7141 0.090472 0.473958 30.097312
2009-09-09 06:49:04 51°13.867 2°52.93 21.7397 0.071639 0.372225 30.236608
2009-09-09 06:49:10 51°13.859 2°52.902 21.7152 0.07308 0.379907 30.16696
2009-09-09 06:49:14 51°13.852 2°52.884 21.7431 0.07061 0.366682 30.34108
2009-09-09 06:49:19 51°13.845 2°52.86 21.7259 0.06104 0.315608 30.375904
2009-09-09 06:49:25 51°13.835 2°52.833 21.7674 0.06104 0.315608 30.375904
2009-09-09 06:49:29 51°13.829 2°52.814 21.7201 0.081004 0.422535 30.445552
2009-09-09 06:49:34 51°13.821 2°52.791 21.7268 0.094589 0.496182 30.793793
2009-09-09 06:49:39 51°13.815 2°52.767 21.7392 0.07236 0.376136 30.550024
2009-09-09 06:49:44 51°13.805 2°52.745 21.7399 0.104572 0.550846 30.898265
2009-09-09 06:49:49 51°13.799 2°52.721 21.7685 0.075035 0.390533 30.689321
2009-09-09 06:49:54 51°13.791 2°52.698 21.711 0.075035 0.390533 30.689321
2009-09-09 06:49:59 51°13.783 2°52.674 21.7638 0.092016 0.482428 30.898265
2009-09-09 06:50:04 51°13.776 2°52.65 21.7154 0.071845 0.373476 30.793793
2009-09-09 06:50:09 51°13.767 2°52.628 21.7483 0.07236 0.376161 30.967913
2009-09-09 06:50:14 51°13.761 2°52.604 21.738 0.092531 0.485194 30.967913
2009-09-09 06:50:19 51°13.753 2°52.58 21.743 0.078431 0.408794 31.072385
2009-09-09 06:50:25 51°13.745 2°52.552 21.7398 0.078431 0.408794 31.072385
2009-09-09 06:50:29 51°13.738 2°52.533 21.7242 0.060628 0.31352 31.142033
2009-09-09 06:50:34 51°13.731 2°52.509 21.7508 0.087076 0.455508 31.176857
2009-09-09 06:50:39 51°13.723 2°52.486 21.7362 0.08687 0.454453 31.211682
2009-09-09 06:50:45 51°13.715 2°52.457 21.7391 0.069478 0.360736 31.211682
2009-09-09 06:50:49 51°13.708 2°52.439 21.742 0.061966 0.320618 31.316154
2009-09-09 06:50:54 51°13.701 2°52.415 21.7456 0.061966 0.320618 31.316154
2009-09-09 06:50:58 51°13.695 2°52.396 21.7155 0.062069 0.321218 31.350978
2009-09-09 06:51:04 51°13.685 2°52.369 21.7579 0.099632 0.523887 31.420626
2009-09-09 06:51:09 51°13.678 2°52.345 21.7242 0.079769 0.416046 31.385802
2009-09-09 06:51:14 51°13.669 2°52.323 21.7611 0.12392 0.65751 31.559922
2009-09-09 06:51:18 51°13.665 2°52.303 21.7346 0.068346 0.354781 31.559922
2009-09-09 06:51:24 51°13.655 2°52.276 21.7422 0.068346 0.354781 31.559922
2009-09-09 06:51:29 51°13.647 2°52.252 21.7434 0.078329 0.408334 31.62957
2009-09-09 06:51:34 51°13.64 2°52.228 21.7668 0.060216 0.311431 31.62957
2009-09-09 06:51:39 51°13.632 2°52.205 21.7615 0.078843 0.411128 31.664394
2009-09-09 06:51:45 51°13.623 2°52.176 21.7354 0.061554 0.318539 31.699218
2009-09-09 06:51:49 51°13.617 2°52.158 21.7731 0.065053 0.337165 31.734042
2009-09-09 06:51:54 51°13.61 2°52.134 21.7289 0.065053 0.337165 31.734042
2009-09-09 06:51:59 51°13.602 2°52.112 21.7889 0.11826 0.626394 31.942987
2009-09-09 06:52:05 51°13.592 2°52.084 21.7665 0.074727 0.389047 31.80369
2009-09-09 06:52:09 51°13.585 2°52.067 21.7522 0.071536 0.371864 31.908163
2009-09-09 06:52:14 51°13.575 2°52.045 21.7764 0.06495 0.336627 31.908163
2009-09-09 06:52:19 51°13.565 2°52.025 21.7624 0.059702 0.308709 31.942987
2009-09-09 06:52:24 51°13.554 2°52.005 21.7727 0.059702 0.308709 31.942987
2009-09-09 06:52:29 51°13.544 2°51.985 21.7273 0.056512 0.291801 31.942987
2009-09-09 06:52:34 51°13.532 2°51.966 21.7808 0.075344 0.392367 32.047459
2009-09-09 06:52:39 51°13.522 2°51.946 21.7549 0.065876 0.341692 32.047459
2009-09-09 06:52:45 51°13.508 2°51.924 21.7796 0.082651 0.431796 32.082283
2009-09-09 06:52:49 51°13.5 2°51.907 21.7603 0.056306 0.290793 32.082283
2009-09-09 06:52:54 51°13.488 2°51.889 21.7778 0.056306 0.290793 32.082283
2009-09-09 06:52:58 51°13.478 2°51.874 21.7556 0.063715 0.330127 32.117107
2009-09-09 06:53:04 51°13.463 2°51.852 21.7739 0.104777 0.552278 32.186755
2009-09-09 06:53:09 51°13.451 2°51.833 21.7617 0.07061 0.367015 32.221579
2009-09-09 06:53:14 51°13.439 2°51.816 21.7881 0.08615 0.450797 32.256403
2009-09-09 06:53:18 51°13.429 2°51.801 21.7285 0.109203 0.576564 32.326051
2009-09-09 06:53:24 51°13.414 2°51.781 21.7877 0.109203 0.576564 32.326051
2009-09-09 06:53:29 51°13.402 2°51.762 21.7498 0.077094 0.401836 32.291227
2009-09-09 06:53:34 51°13.388 2°51.746 21.7956 0.138329 0.737859 32.465347
2009-09-09 06:53:39 51°13.377 2°51.727 21.7439 0.072771 0.378732 32.326051
2009-09-09 06:53:45 51°13.36 2°51.71 21.779 0.126287 0.671158 32.430523
2009-09-09 06:53:49 51°13.351 2°51.695 21.7897 0.080078 0.418003 32.360875
2009-09-09 06:53:54 51°13.336 2°51.682 21.7795 0.080078 0.418003 32.360875
2009-09-09 06:53:59 51°13.323 2°51.667 21.7625 0.062377 0.323077 32.395699
2009-09-09 06:54:04 51°13.308 2°51.655 21.7692 0.06001 0.310455 32.430523
2009-09-09 06:54:09 51°13.294 2°51.642 21.8019 0.071742 0.373146 32.430523
2009-09-09 06:54:14 51°13.279 2°51.633 21.7836 0.057335 0.296334 32.465347
2009-09-09 06:54:19 51°13.264 2°51.624 21.7838 0.056923 0.294129 32.465347
2009-09-09 06:54:24 51°13.248 2°51.618 21.7896 0.056923 0.294129 32.465347
2009-09-09 06:54:29 51°13.233 2°51.611 21.7694 0.057952 0.299577 32.500171
2009-09-09 06:54:34 51°13.217 2°51.606 21.774 0.053733 0.277212 32.56982
2009-09-09 06:54:39 51°13.203 2°51.602 21.7725 0.060834 0.314814 32.604644
2009-09-09 06:54:44 51°13.189 2°51.599 21.7765 0.065773 0.341131 32.604644
2009-09-09 06:54:49 51°13.176 2°51.596 21.7742 0.058467 0.302282 32.639468
2009-09-09 06:54:54 51°13.164 2°51.594 21.7808 0.058467 0.302282 32.639468
2009-09-09 06:54:59 51°13.152 2°51.592 21.797 0.063304 0.328036 32.639468
2009-09-09 06:55:05 51°13.14 2°51.591 21.7734 0.073903 0.384782 32.674292
2009-09-09 06:55:09 51°13.132 2°51.59 21.7963 0.060731 0.314349 32.674292
2009-09-09 06:55:14 51°13.122 2°51.589 21.7858 0.05929 0.306705 32.709116
2009-09-09 06:55:19 51°13.113 2°51.589 21.7766 0.065773 0.341221 32.74394
2009-09-09 06:55:25 51°13.103 2°51.589 21.7952 0.065773 0.341221 32.74394
2009-09-09 06:55:29 51°13.097 2°51.589 21.7899 0.068346 0.354997 32.74394
2009-09-09 06:55:34 51°13.089 2°51.59 21.7826 0.064744 0.335784 32.74394
2009-09-09 06:55:39 51°13.081 2°51.59 21.7977 0.057129 0.295335 32.778764
2009-09-09 06:55:44 51°13.074 2°51.59 21.7927 0.056306 0.290983 32.813588
2009-09-09 06:55:49 51°13.066 2°51.589 21.7896 0.060525 0.313363 32.813588
2009-09-09 06:55:54 51°13.059 2°51.588 21.7995 0.060525 0.313363 32.813588
2009-09-09 06:55:59 51°13.052 2°51.587 21.7997 0.064744 0.335778 32.813588
2009-09-09 06:56:04 51°13.046 2°51.585 21.7858 0.065465 0.33959 32.883236
2009-09-09 06:56:09 51°13.04 2°51.582 21.7864 0.063201 0.327493 32.848412
2009-09-09 06:56:14 51°13.033 2°51.58 21.7887 0.06104 0.315975 32.883236
2009-09-09 06:56:19 51°13.028 2°51.577 21.7849 0.060113 0.311037 32.883236
2009-09-09 06:56:24 51°13.022 2°51.573 21.8001 0.060113 0.311037 32.883236
2009-09-09 06:56:29 51°13.016 2°51.569 21.8018 0.06248 0.323619 32.883236
2009-09-09 06:56:34 51°13.011 2°51.565 21.7895 0.059496 0.307743 32.91806
2009-09-09 06:56:39 51°13.006 2°51.561 21.7874 0.057232 0.295706 32.952884
2009-09-09 06:56:45 51°13 2°51.556 21.7866 0.06176 0.319765 32.91806
2009-09-09 06:56:49 51°12.996 2°51.552 21.801 0.060319 0.312136 32.952884
2009-09-09 06:56:54 51°12.991 2°51.547 21.8006 0.060319 0.312136 32.952884
2009-09-09 06:56:58 51°12.987 2°51.543 21.8048 0.058981 0.305021 32.952884
2009-09-09 06:57:04 51°12.982 2°51.536 21.7933 0.062892 0.325817 32.952884
2009-09-09 06:57:09 51°12.978 2°51.531 21.7872 0.065156 0.337864 32.952884
2009-09-09 06:57:14 51°12.973 2°51.525 21.7899 0.067111 0.348323 32.987708
2009-09-09 06:57:19 51°12.969 2°51.519 21.7949 0.065568 0.340072 33.057356
2009-09-09 06:57:25 51°12.964 2°51.513 21.8107 0.065568 0.340072 33.057356
2009-09-09 06:57:29 51°12.961 2°51.508 21.8087 0.062995 0.326365 33.057356
2009-09-09 06:57:34 51°12.957 2°51.502 21.7925 0.062274 0.322593 33.127004
2009-09-09 06:57:39 51°12.954 2°51.497 21.7944 0.062686 0.324806 33.127004
2009-09-09 06:57:44 51°12.95 2°51.491 21.8087 0.062892 0.325934 33.09218
2009-09-09 06:57:49 51°12.946 2°51.485 21.8076 0.06814 0.353971 33.057356
2009-09-09 06:57:54 51°12.942 2°51.479 21.8075 0.06814 0.353971 33.057356
2009-09-09 06:57:59 51°12.939 2°51.473 21.8132 0.067214 0.349005 33.09218
2009-09-09 06:58:04 51°12.935 2°51.468 21.809 0.060937 0.315521 33.127004
2009-09-09 06:58:09 51°12.932 2°51.461 21.7997 0.059908 0.310081 33.161829
2009-09-09 06:58:14 51°12.928 2°51.456 21.8019 0.063406 0.328795 33.196653
2009-09-09 06:58:19 51°12.925 2°51.45 21.8099 0.059908 0.310182 33.161829
2009-09-09 06:58:24 51°12.922 2°51.444 21.803 0.059908 0.310182 33.161829
2009-09-09 06:58:29 51°12.919 2°51.438 21.7987 0.055997 0.289437 33.196653
2009-09-09 06:58:34 51°12.915 2°51.432 21.7991 0.055997 0.289423 33.196653
2009-09-09 06:58:38 51°12.913 2°51.427 21.8102 0.068758 0.357365 33.161829
2009-09-09 06:58:44 51°12.909 2°51.42 21.8208 0.063818 0.330963 33.196653
2009-09-09 06:58:49 51°12.906 2°51.414 21.8189 0.065568 0.340369 33.231477
2009-09-09 06:58:54 51°12.903 2°51.408 21.8172 0.065568 0.340369 33.231477
2009-09-09 06:58:59 51°12.9 2°51.402 21.8191 0.061348 0.317935 33.266301
2009-09-09 06:59:05 51°12.896 2°51.395 21.8124 0.059084 0.305868 33.231477
2009-09-09 06:59:09 51°12.893 2°51.391 21.8281 0.059187 0.306375 33.266301
2009-09-09 06:59:14 51°12.89 2°51.385 21.8281 0.064538 0.334856 33.266301
2009-09-09 06:59:19 51°12.887 2°51.38 21.8209 0.057232 0.295958 33.301125
2009-09-09 06:59:25 51°12.883 2°51.373 21.8297 0.057232 0.295958 33.301125
2009-09-09 06:59:29 51°12.881 2°51.368 21.8199 0.066905 0.34752 33.266301
2009-09-09 06:59:34 51°12.878 2°51.363 21.8174 0.066288 0.34419 33.266301
2009-09-09 06:59:39 51°12.875 2°51.357 21.8108 0.066288 0.344213 33.266301
2009-09-09 06:59:45 51°12.871 2°51.35 21.8118 0.062789 0.325595 33.231477
2009-09-09 06:59:49 51°12.869 2°51.346 21.8212 0.061863 0.32068 33.266301
2009-09-09 06:59:54 51°12.866 2°51.34 21.831 0.061863 0.32068 33.266301
2009-09-09 06:59:59 51°12.863 2°51.335 21.8264 0.063406 0.328914 33.301125
2009-09-09 07:00:05 51°12.859 2°51.328 21.8213 0.055277 0.285698 33.335949
2009-09-09 07:00:09 51°12.857 2°51.323 21.8219 0.055688 0.287911 33.335949
2009-09-09 07:00:14 51°12.854 2°51.317 21.8177 0.055894 0.288987 33.301125
2009-09-09 07:00:18 51°12.852 2°51.313 21.8228 0.056203 0.29057 33.301125
2009-09-09 07:00:24 51°12.848 2°51.306 21.8239 0.056203 0.29057 33.301125
2009-09-09 07:00:29 51°12.846 2°51.299 21.8269 0.057746 0.298755 33.335949
2009-09-09 07:00:34 51°12.844 2°51.293 21.8264 0.054248 0.280244 33.370773
2009-09-09 07:00:38 51°12.842 2°51.288 21.831 0.055791 0.288428 33.335949
2009-09-09 07:00:44 51°12.839 2°51.28 21.8274 0.058981 0.305326 33.301125
2009-09-09 07:00:49 51°12.837 2°51.273 21.8305 0.056614 0.29279 33.335949
2009-09-09 07:00:54 51°12.835 2°51.266 21.8343 0.056614 0.29279 33.335949
2009-09-09 07:00:59 51°12.833 2°51.258 21.8344 0.060937 0.315728 33.335949
2009-09-09 07:01:05 51°12.831 2°51.249 21.8373 0.060731 0.314643 33.335949
2009-09-09 07:01:09 51°12.829 2°51.242 21.8334 0.059496 0.308075 33.370773
2009-09-09 07:01:14 51°12.827 2°51.234 21.833 0.064333 0.333846 33.440421
2009-09-09 07:01:19 51°12.825 2°51.225 21.835 0.069169 0.35976 33.405597
2009-09-09 07:01:24 51°12.824 2°51.217 21.8368 0.069169 0.35976 33.405597
2009-09-09 07:01:29 51°12.822 2°51.209 21.8423 0.079872 0.417418 33.370773
2009-09-09 07:01:34 51°12.821 2°51.2 21.8369 0.074521 0.388551 33.370773
2009-09-09 07:01:39 51°12.819 2°51.192 21.8432 0.076785 0.400737 33.440421
2009-09-09 07:01:45 51°12.817 2°51.181 21.8377 0.071845 0.374124 33.405597
2009-09-09 07:01:49 51°12.816 2°51.174 21.8416 0.077094 0.402355 33.370773
2009-09-09 07:01:54 51°12.815 2°51.165 21.845 0.077094 0.402355 33.370773
2009-09-09 07:01:59 51°12.813 2°51.156 21.8414 0.076065 0.396827 33.370773
2009-09-09 07:02:05 51°12.812 2°51.145 21.8478 0.068964 0.358669 33.440421
2009-09-09 07:02:09 51°12.811 2°51.138 21.842 0.067935 0.353144 33.405597
2009-09-09 07:02:14 51°12.809 2°51.128 21.8473 0.071125 0.370262 33.405597
2009-09-09 07:02:19 51°12.808 2°51.119 21.845 0.068449 0.355906 33.510069
2009-09-09 07:02:24 51°12.807 2°51.11 21.852 0.068449 0.355906 33.510069
2009-09-09 07:02:29 51°12.806 2°51.101 21.8564 0.070816 0.368598 33.405597
2009-09-09 07:02:34 51°12.804 2°51.091 21.8546 0.087282 0.457544 33.370773
2009-09-09 07:02:39 51°12.804 2°51.082 21.854 0.079255 0.414088 33.475245
2009-09-09 07:02:44 51°12.803 2°51.073 21.8494 0.081107 0.424151 33.370773
2009-09-09 07:02:49 51°12.802 2°51.065 21.8446 0.077608 0.405252 33.405597
2009-09-09 07:02:54 51°12.801 2°51.056 21.8396 0.077608 0.405252 33.405597
2009-09-09 07:02:59 51°12.8 2°51.046 21.8445 0.076373 0.398656 33.475245
2009-09-09 07:03:04 51°12.799 2°51.037 21.8482 0.06814 0.354339 33.440421
2009-09-09 07:03:09 51°12.798 2°51.028 21.8493 0.075138 0.391922 33.370773
2009-09-09 07:03:14 51°12.797 2°51.019 21.8588 0.071742 0.373683 33.475245
2009-09-09 07:03:19 51°12.796 2°51.01 21.8584 0.072257 0.376411 33.405597
2009-09-09 07:03:24 51°12.795 2°51 21.8603 0.072257 0.376411 33.405597
2009-09-09 07:03:29 51°12.794 2°50.991 21.8536 0.07802 0.40744 33.440421
2009-09-09 07:03:34 51°12.793 2°50.982 21.8474 0.066597 0.346109 33.510069
2009-09-09 07:03:39 51°12.792 2°50.973 21.8526 0.069993 0.364325 33.475245
2009-09-09 07:03:45 51°12.79 2°50.962 21.8582 0.073183 0.38153 33.440421
2009-09-09 07:03:49 51°12.789 2°50.955 21.864 0.069581 0.362206 33.440421
2009-09-09 07:03:54 51°12.788 2°50.946 21.8638 0.069581 0.362206 33.440421
2009-09-09 07:03:59 51°12.786 2°50.936 21.8553 0.068346 0.355571 33.510069
2009-09-09 07:04:05 51°12.784 2°50.925 21.8642 0.072874 0.379869 33.440421
2009-09-09 07:04:09 51°12.782 2°50.918 21.8597 0.074418 0.388178 33.440421
2009-09-09 07:04:14 51°12.78 2°50.909 21.8571 0.069169 0.359992 33.440421
2009-09-09 07:04:18 51°12.778 2°50.901 21.855 0.06814 0.354474 33.440421
2009-09-09 07:04:24 51°12.776 2°50.891 21.8663 0.06814 0.354474 33.440421
2009-09-09 07:04:29 51°12.774 2°50.882 21.8676 0.071948 0.374938 33.475245
2009-09-09 07:04:34 51°12.771 2°50.873 21.8581 0.076167 0.397659 33.510069
2009-09-09 07:04:39 51°12.769 2°50.864 21.8524 0.072566 0.378283 33.475245
2009-09-09 07:04:45 51°12.766 2°50.854 21.8658 0.0738 0.384917 33.440421
2009-09-09 07:04:49 51°12.764 2°50.847 21.8721 0.069684 0.362795 33.440421
2009-09-09 07:04:54 51°12.762 2°50.838 21.8726 0.069684 0.362795 33.440421
2009-09-09 07:04:59 51°12.76 2°50.83 21.8728 0.069272 0.360574 33.475245
2009-09-09 07:05:04 51°12.758 2°50.821 21.8668 0.072463 0.377692 33.440421
2009-09-09 07:05:09 51°12.755 2°50.813 21.864 0.072566 0.378233 33.370773
2009-09-09 07:05:14 51°12.753 2°50.805 21.8754 0.075756 0.395445 33.440421
2009-09-09 07:05:19 51°12.751 2°50.796 21.8745 0.071331 0.371625 33.440421
2009-09-09 07:05:25 51°12.748 2°50.787 21.8751 0.071331 0.371625 33.440421
2009-09-09 07:05:29 51°12.746 2°50.78 21.8642 0.076991 0.40208 33.440421
2009-09-09 07:05:34 51°12.743 2°50.772 21.8675 0.068346 0.355571 33.475245
2009-09-09 07:05:39 51°12.741 2°50.764 21.8736 0.077814 0.406538 33.440421
2009-09-09 07:05:44 51°12.738 2°50.756 21.8646 0.074932 0.391001 33.440421
2009-09-09 07:05:49 51°12.736 2°50.748 21.8711 0.071845 0.374391 33.440421
2009-09-09 07:05:54 51°12.733 2°50.74 21.8799 0.071845 0.374391 33.440421
2009-09-09 07:05:59 51°12.73 2°50.732 21.8661 0.072771 0.379378 33.440421
2009-09-09 07:06:04 51°12.727 2°50.724 21.8827 0.068552 0.356704 33.475245
2009-09-09 07:06:09 51°12.724 2°50.717 21.8851 0.070096 0.364974 33.405597
2009-09-09 07:06:14 51°12.721 2°50.709 21.8884 0.064847 0.336882 33.475245
2009-09-09 07:06:19 51°12.718 2°50.702 21.8867 0.069787 0.363395 33.475245
2009-09-09 07:06:25 51°12.714 2°50.693 21.8774 0.069787 0.363395 33.475245
2009-09-09 07:06:29 51°12.712 2°50.687 21.8837 0.074521 0.388854 33.440421
2009-09-09 07:06:34 51°12.709 2°50.68 21.8912 0.069067 0.359517 33.440421
2009-09-09 07:06:39 51°12.705 2°50.673 21.8926 0.070404 0.366686 33.440421
2009-09-09 07:06:45 51°12.702 2°50.664 21.893 0.067008 0.348473 33.475245
2009-09-09 07:06:49 51°12.699 2°50.658 21.8893 0.063098 0.327575 33.510069
2009-09-09 07:06:54 51°12.696 2°50.651 21.8786 0.063098 0.327575 33.510069
2009-09-09 07:06:59 51°12.692 2°50.644 21.884 0.065568 0.340773 33.510069
2009-09-09 07:07:04 51°12.689 2°50.637 21.8741 0.072051 0.37556 33.475245
2009-09-09 07:07:09 51°12.686 2°50.629 21.878 0.070199 0.365581 33.475245
2009-09-09 07:07:14 51°12.682 2°50.622 21.877 0.06989 0.36402 33.405597
2009-09-09 07:07:19 51°12.679 2°50.615 21.8762 0.068449 0.356247 33.370773
2009-09-09 07:07:24 51°12.676 2°50.608 21.8823 0.068449 0.356247 33.370773
2009-09-09 07:07:29 51°12.672 2°50.601 21.8831 0.065362 0.339722 33.440421
2009-09-09 07:07:34 51°12.669 2°50.594 21.8933 0.063406 0.329272 33.510069
2009-09-09 07:07:39 51°12.666 2°50.587 21.8989 0.063304 0.328733 33.510069
2009-09-09 07:07:44 51°12.662 2°50.58 21.8934 0.067008 0.348542 33.440421
2009-09-09 07:07:49 51°12.659 2°50.573 21.8971 0.067008 0.348513 33.440421
2009-09-09 07:07:54 51°12.655 2°50.566 21.8944 0.067008 0.348513 33.440421
2009-09-09 07:07:59 51°12.652 2°50.559 21.8976 0.068449 0.356247 33.405597
2009-09-09 07:08:04 51°12.649 2°50.552 21.8985 0.065362 0.339678 33.405597
2009-09-09 07:08:09 51°12.645 2°50.544 21.8961 0.066391 0.34519 33.405597
2009-09-09 07:08:14 51°12.642 2°50.537 21.8955 0.070713 0.368381 33.475245
2009-09-09 07:08:19 51°12.638 2°50.53 21.9001 0.067214 0.34961 33.510069
2009-09-09 07:08:25 51°12.634 2°50.521 21.8966 0.067214 0.34961 33.510069
2009-09-09 07:08:29 51°12.631 2°50.516 21.9 0.075344 0.393357 33.405597
2009-09-09 07:08:34 51°12.627 2°50.508 21.8964 0.082342 0.431208 33.405597
2009-09-09 07:08:38 51°12.625 2°50.502 21.9046 0.075138 0.39226 33.440421
2009-09-09 07:08:44 51°12.621 2°50.494 21.908 0.068758 0.35795 33.440421
2009-09-09 07:08:49 51°12.618 2°50.486 21.9063 0.069375 0.361239 33.475245
2009-09-09 07:08:54 51°12.614 2°50.479 21.9009 0.069375 0.361239 33.475245
2009-09-09 07:08:59 51°12.611 2°50.472 21.9037 0.06742 0.350759 33.440421
2009-09-09 07:09:05 51°12.607 2°50.463 21.9093 0.068552 0.356858 33.440421
2009-09-09 07:09:09 51°12.604 2°50.457 21.9099 0.067111 0.349139 33.335949
2009-09-09 07:09:14 51°12.601 2°50.45 21.9104 0.06814 0.354656 33.405597
2009-09-09 07:09:19 51°12.598 2°50.443 21.9092 0.070096 0.365149 33.440421
2009-09-09 07:09:24 51°12.594 2°50.436 21.9031 0.070096 0.365149 33.440421
2009-09-09 07:09:29 51°12.591 2°50.428 21.8991 0.070301 0.366267 33.440421
2009-09-09 07:09:34 51°12.588 2°50.421 21.911 0.067008 0.3486 33.440421
2009-09-09 07:09:39 51°12.585 2°50.414 21.9094 0.067317 0.35026 33.440421
2009-09-09 07:09:44 51°12.582 2°50.406 21.9182 0.069478 0.361858 33.405597
2009-09-09 07:09:49 51°12.578 2°50.399 21.9144 0.068964 0.359114 33.405597
2009-09-09 07:09:54 51°12.575 2°50.392 21.9123 0.068964 0.359114 33.405597
2009-09-09 07:09:59 51°12.571 2°50.384 21.9107 0.064847 0.337059 33.370773
2009-09-09 07:10:05 51°12.567 2°50.375 21.931 0.070816 0.369032 33.370773
2009-09-09 07:10:09 51°12.564 2°50.37 21.9461 0.075035 0.391692 33.370773
2009-09-09 07:10:14 51°12.561 2°50.363 21.9546 0.067111 0.349082 33.405597
2009-09-09 07:10:18 51°12.559 2°50.357 21.9557 0.067729 0.352402 33.370773
2009-09-09 07:10:24 51°12.555 2°50.348 21.9495 0.067729 0.352402 33.370773
2009-09-09 07:10:29 51°12.552 2°50.34 21.9464 0.068861 0.358526 33.370773
2009-09-09 07:10:34 51°12.548 2°50.333 21.9502 0.07483 0.390706 33.370773
2009-09-09 07:10:39 51°12.545 2°50.326 21.9492 0.079152 0.414041 33.405597
2009-09-09 07:10:45 51°12.541 2°50.317 21.9449 0.071742 0.374079 33.405597
2009-09-09 07:10:49 51°12.539 2°50.311 21.9597 0.072463 0.377949 33.335949
2009-09-09 07:10:54 51°12.535 2°50.304 21.9484 0.072463 0.377949 33.335949
2009-09-09 07:10:59 51°12.532 2°50.296 21.95 0.076682 0.400701 33.405597
2009-09-09 07:11:05 51°12.528 2°50.287 21.9499 0.067729 0.352548 33.405597
2009-09-09 07:11:09 51°12.525 2°50.282 21.9461 0.06814 0.354791 33.370773
2009-09-09 07:11:14 51°12.522 2°50.274 21.9267 0.073698 0.384707 33.335949
2009-09-09 07:11:19 51°12.519 2°50.267 21.9289 0.073595 0.384127 33.370773
2009-09-09 07:11:25 51°12.515 2°50.258 21.9371 0.073595 0.384127 33.370773
2009-09-09 07:11:29 51°12.513 2°50.252 21.9389 0.066905 0.348175 33.370773
2009-09-09 07:11:34 51°12.51 2°50.245 21.9402 0.068449 0.356471 33.301125
2009-09-09 07:11:39 51°12.506 2°50.238 21.9383 0.073595 0.384146 33.335949
2009-09-09 07:11:44 51°12.503 2°50.231 21.9394 0.075344 0.393585 33.335949
2009-09-09 07:11:49 51°12.5 2°50.223 21.947 0.072771 0.379724 33.370773
2009-09-09 07:11:54 51°12.497 2°50.216 21.9623 0.072771 0.379724 33.370773
2009-09-09 07:11:59 51°12.494 2°50.209 21.9577 0.068552 0.357041 33.335949
2009-09-09 07:12:04 51°12.491 2°50.202 21.9459 0.064539 0.335541 33.370773
2009-09-09 07:12:09 51°12.488 2°50.195 21.9456 0.066288 0.344878 33.335949
2009-09-09 07:12:14 51°12.484 2°50.188 21.947 0.071228 0.371398 33.335949
2009-09-09 07:12:19 51°12.481 2°50.181 21.9635 0.070199 0.365896 33.335949
2009-09-09 07:12:24 51°12.478 2°50.174 21.9656 0.070199 0.365896 33.335949
2009-09-09 07:12:29 51°12.475 2°50.167 21.9666 0.070096 0.365355 33.301125
2009-09-09 07:12:34 51°12.472 2°50.159 21.969 0.070301 0.366467 33.301125
2009-09-09 07:12:39 51°12.469 2°50.152 21.9718 0.06423 0.333912 33.335949
2009-09-09 07:12:44 51°12.465 2°50.145 21.9733 0.063921 0.33225 33.301125
2009-09-09 07:12:49 51°12.462 2°50.138 21.9727 0.069787 0.363702 33.301125
2009-09-09 07:12:54 51°12.459 2°50.132 21.9722 0.069787 0.363702 33.301125
2009-09-09 07:12:59 51°12.456 2°50.124 21.9649 0.07308 0.381425 33.335949
2009-09-09 07:13:05 51°12.453 2°50.116 21.9676 0.065773 0.342173 33.335949
2009-09-09 07:13:09 51°12.45 2°50.11 21.9692 0.061554 0.31964 33.335949
2009-09-09 07:13:14 51°12.447 2°50.103 21.9773 0.061657 0.320179 33.370773
2009-09-09 07:13:19 51°12.444 2°50.096 21.9742 0.064641 0.336103 33.370773
2009-09-09 07:13:25 51°12.44 2°50.088 21.977 0.064641 0.336103 33.370773
2009-09-09 07:13:29 51°12.438 2°50.082 21.9713 0.071742 0.374247 33.335949
2009-09-09 07:13:34 51°12.435 2°50.075 21.9702 0.071845 0.3748 33.301125
2009-09-09 07:13:39 51°12.432 2°50.068 21.9656 0.067008 0.348836 33.335949
2009-09-09 07:13:45 51°12.429 2°50.06 21.9764 0.064333 0.334507 33.335949
2009-09-09 07:13:49 51°12.426 2°50.055 21.9724 0.066803 0.347715 33.231477
2009-09-09 07:13:54 51°12.424 2°50.048 21.974 0.066803 0.347715 33.231477
2009-09-09 07:13:59 51°12.421 2°50.041 21.9795 0.069067 0.359839 33.266301
2009-09-09 07:14:04 51°12.418 2°50.034 21.9777 0.0738 0.385319 33.301125
2009-09-09 07:14:09 51°12.415 2°50.027 21.979 0.06814 0.35492 33.335949
2009-09-09 07:14:14 51°12.412 2°50.019 21.9808 0.062583 0.325171 33.370773
2009-09-09 07:14:18 51°12.41 2°50.014 21.9821 0.065876 0.342775 33.335949
2009-09-09 07:14:24 51°12.406 2°50.005 21.9839 0.065876 0.342775 33.335949
2009-09-09 07:14:29 51°12.404 2°49.998 21.9832 0.071845 0.374831 33.266301
2009-09-09 07:14:34 51°12.401 2°49.991 21.9841 0.071125 0.370955 33.231477
2009-09-09 07:14:39 51°12.398 2°49.983 21.9824 0.069375 0.361544 33.335949
2009-09-09 07:14:45 51°12.395 2°49.975 21.9826 0.063715 0.33121 33.266301
2009-09-09 07:14:49 51°12.393 2°49.969 21.9874 0.066597 0.346618 33.266301
2009-09-09 07:14:54 51°12.39 2°49.962 21.9877 0.066597 0.346618 33.266301
2009-09-09 07:14:59 51°12.387 2°49.955 21.9892 0.073595 0.384229 33.301125
2009-09-09 07:15:04 51°12.384 2°49.948 21.9871 0.072668 0.37922 33.266301
2009-09-09 07:15:09 51°12.381 2°49.941 21.9866 0.068346 0.356024 33.301125
2009-09-09 07:15:14 51°12.379 2°49.934 21.9815 0.065053 0.338372 33.301125
2009-09-09 07:15:19 51°12.376 2°49.926 21.9684 0.064024 0.332872 33.335949
2009-09-09 07:15:25 51°12.372 2°49.918 21.9759 0.064024 0.332872 33.335949
2009-09-09 07:15:29 51°12.37 2°49.912 21.9801 0.0667 0.34721 33.266301
2009-09-09 07:15:34 51°12.367 2°49.905 21.9691 0.062892 0.326821 33.266301
2009-09-09 07:15:39 51°12.364 2°49.898 21.9736 0.072874 0.380404 33.196653
2009-09-09 07:15:45 51°12.361 2°49.89 21.9773 0.074727 0.390404 33.196653
2009-09-09 07:15:49 51°12.358 2°49.884 21.9762 0.081725 0.428305 33.161829
2009-09-09 07:15:54 51°12.356 2°49.877 21.9852 0.081725 0.428305 33.161829
2009-09-09 07:15:59 51°12.353 2°49.87 21.9823 0.080696 0.422726 33.231477
2009-09-09 07:16:05 51°12.349 2°49.861 21.9822 0.074933 0.391579 33.231477
2009-09-09 07:16:09 51°12.347 2°49.855 21.9778 0.079975 0.418844 33.231477
2009-09-09 07:16:14 51°12.344 2°49.848 21.9741 0.080593 0.422161 33.266301
2009-09-09 07:16:19 51°12.341 2°49.84 21.9756 0.074109 0.387144 33.231477
2009-09-09 07:16:25 51°12.338 2°49.832 21.9808 0.074109 0.387144 33.231477
2009-09-09 07:16:29 51°12.336 2°49.826 21.9817 0.070199 0.36609 33.196653
2009-09-09 07:16:34 51°12.333 2°49.819 21.9953 0.067832 0.353374 33.231477
2009-09-09 07:16:39 51°12.33 2°49.811 21.9878 0.070816 0.369405 33.196653
2009-09-09 07:16:45 51°12.327 2°49.802 21.9836 0.073903 0.386015 33.196653
2009-09-09 07:16:50 51°12.324 2°49.795 21.9838 0.070919 0.369971 33.196653
2009-09-09 07:16:54 51°12.322 2°49.79 21.9795 0.070919 0.369971 33.196653
2009-09-09 07:16:59 51°12.319 2°49.782 21.9858 0.07061 0.36831 33.231477
2009-09-09 07:17:05 51°12.316 2°49.774 21.998 0.070816 0.369423 33.266301
2009-09-09 07:17:09 51°12.314 2°49.768 22.0031 0.072566 0.378829 33.266301
2009-09-09 07:17:14 51°12.311 2°49.761 22.002 0.067111 0.34948 33.196653
2009-09-09 07:17:19 51°12.308 2°49.754 21.9976 0.070404 0.36716 33.127004
2009-09-09 07:17:25 51°12.305 2°49.745 21.9926 0.070404 0.36716 33.127004
2009-09-09 07:17:29 51°12.303 2°49.739 21.9912 0.076167 0.398234 33.161829
2009-09-09 07:17:34 51°12.3 2°49.732 21.9937 0.066597 0.34675 33.231477
2009-09-09 07:17:39 51°12.297 2°49.725 21.994 0.069169 0.36057 33.127004
2009-09-09 07:17:45 51°12.294 2°49.716 21.9968 0.069581 0.362794 33.266301
2009-09-09 07:17:49 51°12.291 2°49.71 22.0025 0.067626 0.352293 33.196653
2009-09-09 07:17:54 51°12.289 2°49.703 22.0034 0.067626 0.352293 33.196653
2009-09-09 07:17:59 51°12.286 2°49.696 22.0055 0.074933 0.391612 33.127004
2009-09-09 07:18:05 51°12.283 2°49.688 22.0017 0.073389 0.383285 33.127004
2009-09-09 07:18:09 51°12.281 2°49.682 22.0009 0.07555 0.394952 33.161829
2009-09-09 07:18:14 51°12.278 2°49.675 22.01 0.072977 0.381066 33.231477
2009-09-09 07:18:18 51°12.276 2°49.669 22.0065 0.063304 0.329129 33.196653
2009-09-09 07:18:25 51°12.271 2°49.66 22.0067 0.063304 0.329129 33.196653
2009-09-09 07:18:29 51°12.269 2°49.654 22.0124 0.066905 0.348405 33.161829
2009-09-09 07:18:34 51°12.267 2°49.647 22.0041 0.064641 0.336308 33.231477
2009-09-09 07:18:39 51°12.264 2°49.64 22.0185 0.063201 0.328589 33.196653
2009-09-09 07:18:45 51°12.261 2°49.631 22.0185 0.063715 0.33133 33.161829
2009-09-09 07:18:50 51°12.258 2°49.624 22.0108 0.060628 0.31484 33.196653
2009-09-09 07:18:54 51°12.255 2°49.618 21.9991 0.060628 0.31484 33.196653
2009-09-09 07:18:59 51°12.253 2°49.611 22.0063 0.068243 0.355613 33.231477
2009-09-09 07:19:05 51°12.25 2°49.602 22.0077 0.069684 0.363378 33.127004
2009-09-09 07:19:09 51°12.247 2°49.597 21.9951 0.065053 0.338512 33.127004
2009-09-09 07:19:14 51°12.244 2°49.59 22.0036 0.074933 0.391657 32.987708
2009-09-09 07:19:19 51°12.242 2°49.583 22.0122 0.063304 0.329199 33.057356
2009-09-09 07:19:25 51°12.238 2°49.574 22.0278 0.063304 0.329199 33.057356
2009-09-09 07:19:29 51°12.236 2°49.568 22.0276 0.065671 0.341876 33.022532
2009-09-09 07:19:34 51°12.233 2°49.561 22.0303 0.072566 0.378892 33.057356
2009-09-09 07:19:39 51°12.23 2°49.553 22.0265 0.064333 0.334694 33.127004
2009-09-09 07:19:45 51°12.227 2°49.545 22.0214 0.06248 0.324798 33.161829
2009-09-09 07:19:49 51°12.225 2°49.539 22.0224 0.059187 0.307216 33.161829
2009-09-09 07:19:54 51°12.222 2°49.532 22.0269 0.059187 0.307216 33.161829
2009-09-09 07:19:58 51°12.219 2°49.527 22.0201 0.062172 0.323138 33.127004
2009-09-09 07:20:04 51°12.216 2°49.518 22.0081 0.06423 0.334155 33.09218
2009-09-09 07:20:09 51°12.213 2°49.511 22.0237 0.066288 0.345186 33.09218
2009-09-09 07:20:14 51°12.21 2°49.504 22.025 0.065465 0.340762 33.057356
2009-09-09 07:20:18 51°12.208 2°49.498 22.0306 0.064024 0.333037 33.057356
2009-09-09 07:20:25 51°12.204 2°49.488 22.0243 0.064024 0.333037 33.057356
2009-09-09 07:20:29 51°12.202 2°49.482 22.0255 0.061554 0.319824 32.987708
2009-09-09 07:20:34 51°12.199 2°49.475 22.0237 0.072257 0.377248 32.987708
2009-09-09 07:20:39 51°12.196 2°49.468 22.0137 0.068449 0.356783 33.022532
2009-09-09 07:20:45 51°12.193 2°49.459 22.0164 0.071639 0.373916 32.987708
2009-09-09 07:20:49 51°12.191 2°49.454 22.0163 0.067214 0.350136 33.022532
2009-09-09 07:20:54 51°12.188 2°49.446 22.0269 0.067214 0.350136 33.022532
2009-09-09 07:20:59 51°12.185 2°49.439 22.0251 0.067729 0.352892 33.022532
2009-09-09 07:21:04 51°12.182 2°49.432 22.0292 0.065876 0.342962 32.987708
2009-09-09 07:21:09 51°12.18 2°49.425 22.0237 0.063818 0.331952 32.987708
2009-09-09 07:21:14 51°12.177 2°49.418 22.0269 0.069478 0.362343 32.987708
2009-09-09 07:21:19 51°12.174 2°49.411 22.0226 0.064127 0.333631 32.987708
2009-09-09 07:21:24 51°12.171 2°49.404 22.0299 0.064127 0.333631 32.987708
2009-09-09 07:21:29 51°12.168 2°49.396 22.033 0.062892 0.327047 33.022532
2009-09-09 07:21:34 51°12.165 2°49.389 22.0353 0.065876 0.34303 32.952884
2009-09-09 07:21:39 51°12.162 2°49.383 22.0412 0.06989 0.364599 32.987708
2009-09-09 07:21:44 51°12.16 2°49.375 22.0344 0.067214 0.350229 32.987708
2009-09-09 07:21:49 51°12.157 2°49.368 22.0361 0.063201 0.328747 32.91806
2009-09-09 07:21:54 51°12.154 2°49.361 22.0366 0.063201 0.328747 32.91806
2009-09-09 07:21:59 51°12.151 2°49.354 22.0417 0.070507 0.367933 32.952884
2009-09-09 07:22:05 51°12.148 2°49.346 22.043 0.065362 0.340289 32.987708
2009-09-09 07:22:09 51°12.145 2°49.34 22.0322 0.065259 0.339732 32.952884
2009-09-09 07:22:14 51°12.142 2°49.333 22.0301 0.073183 0.382341 32.987708
2009-09-09 07:22:19 51°12.139 2°49.326 22.0306 0.070507 0.367951 32.987708
2009-09-09 07:22:25 51°12.136 2°49.317 22.0335 0.070507 0.367951 32.987708
2009-09-09 07:22:29 51°12.134 2°49.311 22.0311 0.063818 0.332067 32.952884
2009-09-09 07:22:34 51°12.13 2°49.305 22.0342 0.06495 0.338129 32.987708
2009-09-09 07:22:39 51°12.127 2°49.298 22.0458 0.064127 0.333742 32.987708
2009-09-09 07:22:45 51°12.124 2°49.289 22.0514 0.062789 0.326594 32.987708
2009-09-09 07:22:49 51°12.121 2°49.283 22.0478 0.065156 0.339282 32.987708
2009-09-09 07:22:54 51°12.119 2°49.276 22.051 0.065156 0.339282 32.987708
2009-09-09 07:22:59 51°12.116 2°49.269 22.0511 0.069581 0.363053 32.91806
2009-09-09 07:23:04 51°12.113 2°49.262 22.0477 0.071228 0.371916 32.91806
2009-09-09 07:23:09 51°12.111 2°49.254 22.0557 0.070507 0.368025 32.952884
2009-09-09 07:23:14 51°12.108 2°49.248 22.0555 0.063818 0.332105 32.987708
2009-09-09 07:23:19 51°12.105 2°49.24 22.058 0.067008 0.349177 32.952884
2009-09-09 07:23:24 51°12.102 2°49.233 22.0608 0.067008 0.349177 32.952884
2009-09-09 07:23:29 51°12.099 2°49.226 22.0584 0.072566 0.379062 32.91806
2009-09-09 07:23:34 51°12.097 2°49.219 22.0592 0.07483 0.391271 32.883236
2009-09-09 07:23:39 51°12.094 2°49.212 22.0653 0.074418 0.389087 32.883236
2009-09-09 07:23:45 51°12.09 2°49.203 22.0565 0.071639 0.374121 32.987708
2009-09-09 07:23:49 51°12.088 2°49.197 22.0511 0.07483 0.391304 32.91806
2009-09-09 07:23:54 51°12.085 2°49.19 22.0446 0.07483 0.391304 32.91806
2009-09-09 07:23:58 51°12.083 2°49.185 22.047 0.070816 0.369668 32.952884
2009-09-09 07:24:04 51°12.08 2°49.176 22.0608 0.06495 0.338168 32.952884
2009-09-09 07:24:09 51°12.077 2°49.169 22.0686 0.062172 0.323314 32.987708
2009-09-09 07:24:14 51°12.074 2°49.161 22.0607 0.067008 0.349234 32.952884
2009-09-09 07:24:19 51°12.071 2°49.154 22.0535 0.067626 0.35255 32.952884
2009-09-09 07:24:25 51°12.067 2°49.146 22.0515 0.067626 0.35255 32.952884
2009-09-09 07:24:29 51°12.065 2°49.14 22.051 0.062069 0.322796 32.952884
2009-09-09 07:24:34 51°12.062 2°49.133 22.0432 0.063509 0.330486 32.952884
2009-09-09 07:24:39 51°12.059 2°49.126 22.0486 0.072566 0.379176 32.883236
2009-09-09 07:24:45 51°12.056 2°49.116 22.0626 0.079666 0.417547 32.883236
2009-09-09 07:24:49 51°12.054 2°49.111 22.068 0.074418 0.389113 32.91806
2009-09-09 07:24:54 51°12.051 2°49.103 22.0654 0.074418 0.389113 32.91806
2009-09-09 07:24:59 51°12.049 2°49.096 22.0579 0.069478 0.36253 32.883236
2009-09-09 07:25:05 51°12.045 2°49.088 22.0571 0.070302 0.366984 32.883236
2009-09-09 07:25:09 51°12.043 2°49.082 22.0624 0.076991 0.403078 32.883236
2009-09-09 07:25:14 51°12.04 2°49.074 22.0743 0.079461 0.416453 32.952884
2009-09-09 07:25:19 51°12.038 2°49.067 22.0691 0.070199 0.366442 32.952884
2009-09-09 07:25:25 51°12.034 2°49.059 22.0703 0.070199 0.366442 32.952884
2009-09-09 07:25:29 51°12.032 2°49.053 22.0671 0.07061 0.368664 32.848412
2009-09-09 07:25:34 51°12.03 2°49.046 22.0679 0.071331 0.372544 32.848412
2009-09-09 07:25:38 51°12.027 2°49.04 22.0738 0.066494 0.346582 32.883236
2009-09-09 07:25:44 51°12.024 2°49.031 22.0604 0.075035 0.392572 32.91806
2009-09-09 07:25:50 51°12.02 2°49.023 22.0659 0.069375 0.362042 32.952884
2009-09-09 07:25:54 51°12.018 2°49.017 22.0668 0.069375 0.362042 32.952884
2009-09-09 07:25:59 51°12.015 2°49.01 22.0673 0.065053 0.338843 32.952884
2009-09-09 07:26:05 51°12.012 2°49.002 22.0683 0.063715 0.331681 32.91806
2009-09-09 07:26:09 51°12.01 2°48.996 22.0814 0.069581 0.363143 32.91806
2009-09-09 07:26:14 51°12.007 2°48.989 22.0829 0.064847 0.337751 32.91806
2009-09-09 07:26:19 51°12.004 2°48.982 22.0851 0.067935 0.354337 32.778764
2009-09-09 07:26:25 51°12.001 2°48.973 22.0768 0.067935 0.354337 32.778764
2009-09-09 07:26:29 51°11.999 2°48.968 22.075 0.065979 0.343838 32.778764
2009-09-09 07:26:34 51°11.996 2°48.961 22.0847 0.065156 0.339428 32.813588
2009-09-09 07:26:39 51°11.993 2°48.954 22.0783 0.06001 0.311907 32.848412
2009-09-09 07:26:45 51°11.99 2°48.945 22.0778 0.071022 0.370961 32.74394
2009-09-09 07:26:49 51°11.988 2°48.939 22.0786 0.069272 0.361543 32.74394
2009-09-09 07:26:54 51°11.985 2°48.932 22.0855 0.069272 0.361543 32.74394
2009-09-09 07:26:59 51°11.982 2°48.925 22.0879 0.063304 0.329499 32.74394
2009-09-09 07:27:05 51°11.979 2°48.916 22.0895 0.068037 0.354896 32.74394
2009-09-09 07:27:09 51°11.977 2°48.911 22.0749 0.063818 0.332248 32.74394
2009-09-09 07:27:14 51°11.974 2°48.904 22.08 0.06989 0.364829 32.709116
2009-09-09 07:27:18 51°11.972 2°48.898 22.0922 0.062069 0.322876 32.778764
2009-09-09 07:27:25 51°11.968 2°48.888 22.0991 0.062069 0.322876 32.778764
2009-09-09 07:27:29 51°11.965 2°48.882 22.0963 0.066391 0.346053 32.74394
2009-09-09 07:27:34 51°11.963 2°48.875 22.0978 0.072668 0.379857 32.709116
2009-09-09 07:27:38 51°11.961 2°48.869 22.089 0.0667 0.347733 32.709116
2009-09-09 07:27:44 51°11.957 2°48.86 22.0854 0.068037 0.354931 32.74394
2009-09-09 07:27:50 51°11.954 2°48.851 22.1017 0.065979 0.343861 32.74394
2009-09-09 07:27:54 51°11.951 2°48.846 22.0994 0.065979 0.343861 32.74394
2009-09-09 07:27:59 51°11.948 2°48.839 22.101 0.076373 0.399844 32.674292
2009-09-09 07:28:05 51°11.945 2°48.831 22.098 0.076167 0.398738 32.709116
2009-09-09 07:28:09 51°11.942 2°48.825 22.1091 0.073903 0.386496 32.813588
2009-09-09 07:28:14 51°11.94 2°48.817 22.1017 0.065362 0.340543 32.813588
2009-09-09 07:28:19 51°11.937 2°48.81 22.105 0.063715 0.33173 32.813588
2009-09-09 07:28:25 51°11.933 2°48.801 22.0991 0.063715 0.33173 32.813588
2009-09-09 07:28:29 51°11.931 2°48.796 22.0883 0.066082 0.344419 32.778764
2009-09-09 07:28:34 51°11.928 2°48.789 22.0862 0.065362 0.340548 32.709116
2009-09-09 07:28:39 51°11.925 2°48.782 22.0909 0.065568 0.341658 32.709116
2009-09-09 07:28:45 51°11.921 2°48.773 22.0936 0.074521 0.389857 32.674292
2009-09-09 07:28:49 51°11.919 2°48.768 22.0998 0.072668 0.379876 32.709116
2009-09-09 07:28:54 51°11.916 2°48.761 22.0984 0.072668 0.379876 32.709116
2009-09-09 07:28:59 51°11.913 2°48.753 22.1034 0.065362 0.340554 32.778764
2009-09-09 07:29:05 51°11.91 2°48.745 22.1091 0.064436 0.335617 32.74394
2009-09-09 07:29:09 51°11.907 2°48.739 22.1049 0.063098 0.328478 32.74394
2009-09-09 07:29:14 51°11.905 2°48.732 22.1069 0.061143 0.318025 32.778764
2009-09-09 07:29:19 51°11.902 2°48.724 22.1123 0.067523 0.352201 32.74394
2009-09-09 07:29:25 51°11.899 2°48.716 22.1142 0.067523 0.352201 32.74394
2009-09-09 07:29:29 51°11.897 2°48.71 22.1149 0.073698 0.385481 32.74394
2009-09-09 07:29:34 51°11.894 2°48.702 22.1138 0.075138 0.393252 32.709116
2009-09-09 07:29:39 51°11.891 2°48.695 22.1105 0.072668 0.379926 32.674292
2009-09-09 07:29:45 51°11.888 2°48.686 22.11 0.071639 0.374388 32.709116
2009-09-09 07:29:49 51°11.886 2°48.681 22.1025 0.069272 0.361633 32.709116
2009-09-09 07:29:54 51°11.884 2°48.673 22.1116 0.069272 0.361633 32.709116
2009-09-09 07:29:59 51°11.882 2°48.666 22.1174 0.066905 0.348919 32.709116
2009-09-09 07:30:04 51°11.879 2°48.659 22.1167 0.077814 0.407758 32.639468
2009-09-09 07:30:09 51°11.877 2°48.651 22.1164 0.071536 0.373827 32.674292
2009-09-09 07:30:14 51°11.874 2°48.644 22.1104 0.069684 0.363842 32.604644
2009-09-09 07:30:19 51°11.871 2°48.636 22.102 0.076991 0.403299 32.674292
2009-09-09 07:30:24 51°11.869 2°48.629 22.1063 0.076991 0.403299 32.674292
2009-09-09 07:30:29 51°11.866 2°48.622 22.1205 0.072874 0.38105 32.74394
2009-09-09 07:30:34 51°11.864 2°48.615 22.1197 0.071639 0.374388 32.778764
2009-09-09 07:30:39 51°11.862 2°48.608 22.1201 0.068037 0.355008 32.674292
2009-09-09 07:30:45 51°11.859 2°48.598 22.1153 0.071742 0.374974 32.639468
2009-09-09 07:30:49 51°11.857 2°48.593 22.1106 0.072977 0.381649 32.74394
2009-09-09 07:30:54 51°11.855 2°48.585 22.1185 0.072977 0.381649 32.74394
2009-09-09 07:30:59 51°11.853 2°48.578 22.1184 0.068346 0.356692 32.74394
2009-09-09 07:31:05 51°11.851 2°48.569 22.1237 0.06917 0.361115 32.709116
2009-09-09 07:31:09 51°11.849 2°48.563 22.1287 0.070919 0.370542 32.709116
2009-09-09 07:31:14 51°11.847 2°48.556 22.1274 0.072874 0.381113 32.674292
2009-09-09 07:31:19 51°11.846 2°48.549 22.1261 0.074521 0.390006 32.674292
2009-09-09 07:31:25 51°11.843 2°48.54 22.1284 0.074521 0.390006 32.674292
2009-09-09 07:31:29 51°11.842 2°48.535 22.1271 0.071125 0.371658 32.709116
2009-09-09 07:31:34 51°11.841 2°48.528 22.1197 0.069272 0.361693 32.709116
2009-09-09 07:31:39 51°11.839 2°48.52 22.1141 0.068346 0.356709 32.639468
2009-09-09 07:31:45 51°11.837 2°48.511 22.1166 0.076167 0.398891 32.604644
2009-09-09 07:31:49 51°11.836 2°48.506 22.1252 0.073595 0.38497 32.639468
2009-09-09 07:31:54 51°11.834 2°48.498 22.1303 0.073595 0.38497 32.639468
2009-09-09 07:31:59 51°11.833 2°48.491 22.13 0.074933 0.392186 32.639468
2009-09-09 07:32:05 51°11.831 2°48.483 22.135 0.072154 0.377182 32.674292
2009-09-09 07:32:10 51°11.83 2°48.476 22.1327 0.070096 0.366107 32.674292
2009-09-09 07:32:14 51°11.829 2°48.47 22.1302 0.071331 0.372804 32.639468
2009-09-09 07:32:19 51°11.827 2°48.463 22.129 0.075241 0.393986 32.639468
2009-09-09 07:32:24 51°11.826 2°48.456 22.1256 0.075241 0.393986 32.639468
2009-09-09 07:32:29 51°11.825 2°48.448 22.1376 0.066494 0.346852 32.709116
2009-09-09 07:32:34 51°11.824 2°48.441 22.1381 0.067523 0.352359 32.709116
2009-09-09 07:32:39 51°11.822 2°48.434 22.1397 0.0667 0.347883 32.674292
2009-09-09 07:32:44 51°11.821 2°48.427 22.1438 0.064333 0.335165 32.709116
2009-09-09 07:32:49 51°11.82 2°48.42 22.1429 0.071948 0.376122 32.604644
2009-09-09 07:32:54 51°11.819 2°48.412 22.1473 0.071948 0.376122 32.604644
2009-09-09 07:32:59 51°11.818 2°48.405 22.1416 0.07874 0.412845 32.604644
2009-09-09 07:33:04 51°11.817 2°48.398 22.1414 0.068552 0.357828 32.674292
2009-09-09 07:33:09 51°11.816 2°48.39 22.1439 0.064847 0.337952 32.639468
2009-09-09 07:33:14 51°11.815 2°48.383 22.1525 0.066185 0.345171 32.709116
2009-09-09 07:33:19 51°11.814 2°48.376 22.1518 0.07236 0.378399 32.639468
2009-09-09 07:33:25 51°11.813 2°48.368 22.1498 0.07236 0.378399 32.639468
2009-09-09 07:33:29 51°11.812 2°48.362 22.1473 0.075756 0.396736 32.604644
2009-09-09 07:33:34 51°11.811 2°48.355 22.1489 0.069478 0.362867 32.639468
2009-09-09 07:33:39 51°11.811 2°48.348 22.1521 0.072771 0.380634 32.639468
2009-09-09 07:33:45 51°11.81 2°48.339 22.1422 0.07061 0.369001 32.604644
2009-09-09 07:33:49 51°11.809 2°48.333 22.1383 0.069787 0.364572 32.709116
2009-09-09 07:33:54 51°11.809 2°48.326 22.1498 0.069787 0.364572 32.709116
2009-09-09 07:33:59 51°11.808 2°48.319 22.1479 0.067214 0.350717 32.639468
2009-09-09 07:34:05 51°11.808 2°48.311 22.1573 0.07555 0.395662 32.604644
2009-09-09 07:34:09 51°11.807 2°48.306 22.155 0.068449 0.35737 32.709116
2009-09-09 07:34:14 51°11.807 2°48.3 22.1447 0.070507 0.368453 32.604644
2009-09-09 07:34:19 51°11.806 2°48.294 22.1427 0.073492 0.384594 32.639468
2009-09-09 07:34:24 51°11.805 2°48.288 22.1503 0.073492 0.384594 32.639468
2009-09-09 07:34:29 51°11.805 2°48.282 22.1568 0.065156 0.339732 32.639468
2009-09-09 07:34:34 51°11.804 2°48.276 22.1465 0.065362 0.340836 32.639468
2009-09-09 07:34:39 51°11.803 2°48.271 22.1638 0.07236 0.378519 32.604644
2009-09-09 07:34:44 51°11.802 2°48.266 22.163 0.069067 0.360747 32.604644
2009-09-09 07:34:49 51°11.802 2°48.261 22.1637 0.074109 0.387937 32.604644
2009-09-09 07:34:54 51°11.801 2°48.256 22.1556 0.074109 0.387937 32.604644
2009-09-09 07:34:59 51°11.8 2°48.251 22.1551 0.06814 0.355762 32.639468
2009-09-09 07:35:04 51°11.799 2°48.246 22.1511 0.066185 0.345257 32.674292
2009-09-09 07:35:09 51°11.798 2°48.242 22.1557 0.06917 0.361301 32.56982
2009-09-09 07:35:14 51°11.797 2°48.237 22.153 0.075653 0.396298 32.604644
2009-09-09 07:35:19 51°11.797 2°48.232 22.1554 0.064333 0.335298 32.639468
2009-09-09 07:35:24 51°11.796 2°48.228 22.1675 0.064333 0.335298 32.639468
2009-09-09 07:35:29 51°11.795 2°48.224 22.1678 0.066082 0.34467 32.604644
2009-09-09 07:35:34 51°11.794 2°48.219 22.1692 0.064744 0.337473 32.674292
2009-09-09 07:35:39 51°11.793 2°48.216 22.1736 0.060525 0.314882 32.674292
2009-09-09 07:35:45 51°11.791 2°48.211 22.1781 0.064436 0.335828 32.604644
2009-09-09 07:35:49 51°11.79 2°48.208 22.18 0.072154 0.377351 32.534996
2009-09-09 07:35:54 51°11.789 2°48.204 22.1746 0.072154 0.377351 32.534996
2009-09-09 07:35:59 51°11.788 2°48.2 22.1796 0.071742 0.375161 32.604644
2009-09-09 07:36:05 51°11.787 2°48.194 22.1799 0.07236 0.378494 32.639468
2009-09-09 07:36:09 51°11.787 2°48.19 22.1779 0.062275 0.324276 32.674292
2009-09-09 07:36:14 51°11.786 2°48.185 22.1751 0.056512 0.293508 32.639468
2009-09-09 07:36:19 51°11.786 2°48.18 22.1757 0.061554 0.320437 32.604644
2009-09-09 07:36:25 51°11.786 2°48.174 22.1715 0.061554 0.320437 32.604644
2009-09-09 07:36:29 51°11.787 2°48.169 22.1814 0.072463 0.379074 32.534996
2009-09-09 07:36:34 51°11.787 2°48.164 22.1777 0.067008 0.349686 32.604644
2009-09-09 07:36:39 51°11.788 2°48.158 22.177 0.060319 0.313865 32.604644
2009-09-09 07:36:44 51°11.789 2°48.153 22.1817 0.057952 0.301214 32.639468
2009-09-09 07:36:49 51°11.791 2°48.147 22.1679 0.062377 0.32487 32.604644
2009-09-09 07:36:54 51°11.793 2°48.142 22.1685 0.062377 0.32487 32.604644
2009-09-09 07:36:59 51°11.795 2°48.137 22.1744 0.05929 0.308398 32.56982
2009-09-09 07:37:05 51°11.799 2°48.132 22.1747 0.059702 0.310581 32.56982
2009-09-09 07:37:09 51°11.801 2°48.129 22.1684 0.053836 0.279339 32.604644
2009-09-09 07:37:14 51°11.804 2°48.126 22.1723 0.053013 0.274954 32.604644
2009-09-09 07:37:18 51°11.807 2°48.124 22.17 0.054659 0.283714 32.604644
2009-09-09 07:37:24 51°11.812 2°48.122 22.1786 0.054659 0.283714 32.604644
2009-09-09 07:37:29 51°11.816 2°48.122 22.1742 0.05291 0.274422 32.56982
2009-09-09 07:37:34 51°11.82 2°48.123 22.1865 0.051984 0.269496 32.604644
2009-09-09 07:37:38 51°11.822 2°48.124 22.1933 0.064744 0.337562 32.56982
2009-09-09 07:37:44 51°11.827 2°48.128 22.2125 0.071434 0.373577 32.56982
2009-09-09 07:37:49 51°11.831 2°48.134 22.2129 0.065671 0.342579 32.56982
2009-09-09 07:37:54 51°11.834 2°48.14 22.1995 0.065671 0.342579 32.56982
2009-09-09 07:37:58 51°11.838 2°48.146 22.2083 0.068346 0.356952 32.604644
2009-09-09 07:38:04 51°11.843 2°48.156 22.1975 0.05682 0.29522 32.56982
2009-09-09 07:38:09 51°11.848 2°48.165 22.2006 0.057129 0.29685 32.534996
2009-09-09 07:38:14 51°11.853 2°48.176 22.217 0.052087 0.270077 32.604644
2009-09-09 07:38:19 51°11.86 2°48.187 22.2043 0.050852 0.263537 32.56982
2009-09-09 07:38:25 51°11.868 2°48.202 22.1978 0.050852 0.263537 32.56982
2009-09-09 07:38:29 51°11.873 2°48.212 22.2105 0.053836 0.279339 32.56982
2009-09-09 07:38:34 51°11.88 2°48.226 22.2078 0.050955 0.264043 32.56982
2009-09-09 07:38:39 51°11.889 2°48.239 22.2075 0.050852 0.263503 32.56982
2009-09-09 07:38:45 51°11.898 2°48.256 22.1991 0.049514 0.256466 32.604644
2009-09-09 07:38:49 51°11.904 2°48.267 22.1994 0.050131 0.259694 32.604644
2009-09-09 07:38:54 51°11.913 2°48.281 22.2096 0.050131 0.259694 32.604644
2009-09-09 07:38:59 51°11.921 2°48.295 22.2088 0.048485 0.250974 32.534996
2009-09-09 07:39:04 51°11.93 2°48.309 22.208 0.049308 0.255332 32.56982
2009-09-09 07:39:09 51°11.939 2°48.324 22.1956 0.050955 0.264065 32.604644
2009-09-09 07:39:14 51°11.947 2°48.338 22.1949 0.053527 0.277736 32.534996
2009-09-09 07:39:19 51°11.956 2°48.352 22.2074 0.051469 0.2668 32.56982
2009-09-09 07:39:25 51°11.967 2°48.37 22.2048 0.051469 0.2668 32.56982
2009-09-09 07:39:30 51°11.975 2°48.385 22.2018 0.051263 0.265696 32.604644
2009-09-09 07:39:34 51°11.982 2°48.397 22.1999 0.050028 0.259154 32.604644
2009-09-09 07:39:39 51°11.991 2°48.412 22.2009 0.050646 0.262417 32.534996
2009-09-09 07:39:44 51°11.999 2°48.428 22.2085 0.05363 0.278264 32.56982
2009-09-09 07:39:49 51°12.008 2°48.443 22.2072 0.051572 0.267341 32.534996
2009-09-09 07:39:54 51°12.016 2°48.459 22.2054 0.051572 0.267341 32.534996
2009-09-09 07:39:59 51°12.025 2°48.474 22.2169 0.05363 0.278264 32.56982
2009-09-09 07:40:05 51°12.034 2°48.493 22.2042 0.053321 0.276643 32.56982
2009-09-09 07:40:09 51°12.041 2°48.506 22.2172 0.051984 0.269549 32.534996
2009-09-09 07:40:14 51°12.049 2°48.522 22.2228 0.049411 0.255922 32.604644
2009-09-09 07:40:19 51°12.058 2°48.537 22.2054 0.050543 0.26192 32.534996
2009-09-09 07:40:25 51°12.067 2°48.556 22.2046 0.050543 0.26192 32.534996
2009-09-09 07:40:29 51°12.074 2°48.568 22.2186 0.050131 0.259754 32.604644
2009-09-09 07:40:34 51°12.082 2°48.584 22.2135 0.052087 0.270121 32.56982
2009-09-09 07:40:39 51°12.09 2°48.6 22.2156 0.050543 0.261933 32.534996
2009-09-09 07:40:45 51°12.1 2°48.619 22.2265 0.05044 0.261383 32.56982
2009-09-09 07:40:49 51°12.107 2°48.632 22.2128 0.05363 0.278296 32.534996
2009-09-09 07:40:54 51°12.115 2°48.647 22.2153 0.05363 0.278296 32.534996
2009-09-09 07:40:59 51°12.123 2°48.663 22.2185 0.05044 0.261383 32.56982
2009-09-09 07:41:05 51°12.133 2°48.682 22.2179 0.051057 0.264649 32.534996
2009-09-09 07:41:09 51°12.14 2°48.695 22.2195 0.051366 0.26628 32.500171
2009-09-09 07:41:14 51°12.148 2°48.711 22.2276 0.050028 0.259209 32.534996
2009-09-09 07:41:19 51°12.156 2°48.727 22.2215 0.051881 0.269047 32.500171
2009-09-09 07:41:25 51°12.166 2°48.746 22.2271 0.051881 0.269047 32.500171
2009-09-09 07:41:29 51°12.173 2°48.758 22.2274 0.050234 0.260328 32.534996
2009-09-09 07:41:34 51°12.181 2°48.774 22.2269 0.049308 0.255394 32.534996
2009-09-09 07:41:38 51°12.188 2°48.787 22.2223 0.049514 0.256474 32.534996
2009-09-09 07:41:44 51°12.198 2°48.806 22.2242 0.051263 0.265757 32.534996
2009-09-09 07:41:50 51°12.208 2°48.825 22.2194 0.051469 0.266852 32.500171
2009-09-09 07:41:54 51°12.215 2°48.837 22.2336 0.051469 0.266852 32.500171
2009-09-09 07:41:59 51°12.222 2°48.854 22.2252 0.051675 0.267969 32.430523
2009-09-09 07:42:05 51°12.231 2°48.873 22.2422 0.048999 0.253795 32.465347
2009-09-09 07:42:09 51°12.237 2°48.885 22.227 0.048999 0.253799 32.430523
2009-09-09 07:42:14 51°12.245 2°48.9 22.2273 0.048176 0.249457 32.395699
2009-09-09 07:42:19 51°12.252 2°48.915 22.2326 0.049514 0.256529 32.465347
2009-09-09 07:42:25 51°12.262 2°48.932 22.239 0.049514 0.256529 32.465347
2009-09-09 07:42:29 51°12.268 2°48.945 22.2301 0.048999 0.253808 32.465347
2009-09-09 07:42:34 51°12.276 2°48.96 22.2312 0.049205 0.254892 32.465347
2009-09-09 07:42:39 51°12.285 2°48.975 22.2242 0.049617 0.257069 32.430523
2009-09-09 07:42:45 51°12.294 2°48.994 22.2242 0.056923 0.295875 32.395699
2009-09-09 07:42:49 51°12.301 2°49.007 22.2372 0.050337 0.26089 32.500171
2009-09-09 07:42:54 51°12.309 2°49.022 22.2367 0.050337 0.26089 32.500171
2009-09-09 07:42:59 51°12.317 2°49.038 22.2372 0.051572 0.267437 32.465347
2009-09-09 07:43:05 51°12.327 2°49.057 22.2387 0.051057 0.26471 32.465347
2009-09-09 07:43:09 51°12.333 2°49.069 22.2321 0.050028 0.259234 32.430523
2009-09-09 07:43:14 51°12.341 2°49.085 22.2412 0.050337 0.260869 32.465347
2009-09-09 07:43:19 51°12.35 2°49.101 22.2315 0.050749 0.263104 32.500171
2009-09-09 07:43:25 51°12.36 2°49.12 22.2466 0.050749 0.263104 32.500171
2009-09-09 07:43:29 51°12.366 2°49.132 22.236 0.051984 0.269642 32.500171
2009-09-09 07:43:34 51°12.374 2°49.148 22.2457 0.049925 0.258732 32.500171
2009-09-09 07:43:38 51°12.381 2°49.161 22.2399 0.049205 0.254913 32.534996
2009-09-09 07:43:44 51°12.39 2°49.18 22.2304 0.050028 0.259272 32.500171
2009-09-09 07:43:49 51°12.399 2°49.195 22.2472 0.048279 0.250025 32.604644
2009-09-09 07:43:54 51°12.407 2°49.211 22.2443 0.048279 0.250025 32.604644
2009-09-09 07:43:58 51°12.413 2°49.224 22.2387 0.049205 0.254925 32.534996
2009-09-09 07:44:04 51°12.423 2°49.243 22.2512 0.04797 0.248395 32.534996
2009-09-09 07:44:09 51°12.432 2°49.259 22.2456 0.052395 0.271852 32.534996
2009-09-09 07:44:14 51°12.44 2°49.275 22.2455 0.049823 0.258251 32.534996
2009-09-09 07:44:19 51°12.448 2°49.29 22.2436 0.049205 0.254958 32.500171
2009-09-09 07:44:25 51°12.458 2°49.309 22.2426 0.049205 0.254958 32.500171
2009-09-09 07:44:29 51°12.465 2°49.321 22.2539 0.049823 0.258213 32.56982
2009-09-09 07:44:34 51°12.473 2°49.338 22.2558 0.050955 0.264199 32.465347
2009-09-09 07:44:39 51°12.481 2°49.353 22.2505 0.048999 0.253874 32.534996
2009-09-09 07:44:45 51°12.491 2°49.372 22.2537 0.048691 0.252229 32.534996
2009-09-09 07:44:49 51°12.498 2°49.384 22.2484 0.050337 0.26095 32.500171
2009-09-09 07:44:54 51°12.505 2°49.4 22.2579 0.050337 0.26095 32.500171
2009-09-09 07:44:59 51°12.513 2°49.416 22.2498 0.04972 0.257698 32.500171
2009-09-09 07:45:05 51°12.523 2°49.434 22.257 0.047867 0.247904 32.56982
2009-09-09 07:45:09 51°12.53 2°49.447 22.2619 0.04797 0.248439 32.534996
2009-09-09 07:45:14 51°12.538 2°49.463 22.254 0.048691 0.252246 32.534996
2009-09-09 07:45:19 51°12.546 2°49.478 22.2633 0.04725 0.24464 32.500171
2009-09-09 07:45:25 51°12.556 2°49.496 22.2497 0.04725 0.24464 32.500171
2009-09-09 07:45:30 51°12.564 2°49.512 22.2525 0.053013 0.275167 32.500171
2009-09-09 07:45:34 51°12.571 2°49.525 22.2647 0.050646 0.262632 32.534996
2009-09-09 07:45:39 51°12.58 2°49.54 22.2599 0.052189 0.270813 32.56982
2009-09-09 07:45:45 51°12.59 2°49.559 22.2644 0.050234 0.260426 32.56982
2009-09-09 07:45:49 51°12.596 2°49.571 22.267 0.053527 0.277891 32.500171
2009-09-09 07:45:54 51°12.604 2°49.587 22.258 0.053527 0.277891 32.500171
2009-09-09 07:45:59 51°12.612 2°49.603 22.263 0.051057 0.264796 32.534996
2009-09-09 07:46:04 51°12.62 2°49.619 22.2697 0.050234 0.260439 32.500171
2009-09-09 07:46:09 51°12.628 2°49.635 22.2582 0.048485 0.251174 32.604644
2009-09-09 07:46:14 51°12.636 2°49.65 22.2568 0.04972 0.257714 32.534996
2009-09-09 07:46:19 51°12.643 2°49.666 22.2807 0.050234 0.26046 32.604644
2009-09-09 07:46:24 51°12.651 2°49.682 22.2711 0.050234 0.26046 32.604644
2009-09-09 07:46:29 51°12.658 2°49.697 22.2566 0.048279 0.250123 32.56982
2009-09-09 07:46:34 51°12.667 2°49.712 22.2742 0.048691 0.252303 32.534996
2009-09-09 07:46:39 51°12.675 2°49.727 22.2682 0.048073 0.249031 32.56982
2009-09-09 07:46:45 51°12.684 2°49.746 22.2628 0.048691 0.252308 32.500171
2009-09-09 07:46:49 51°12.69 2°49.758 22.2704 0.048279 0.250156 32.56982
2009-09-09 07:46:55 51°12.7 2°49.776 22.273 0.048279 0.250156 32.56982
2009-09-09 07:46:59 51°12.707 2°49.789 22.2602 0.047764 0.247433 32.534996
2009-09-09 07:47:05 51°12.717 2°49.807 22.2629 0.050131 0.259957 32.56982
2009-09-09 07:47:09 51°12.723 2°49.82 22.2744 0.052189 0.270871 32.500171
2009-09-09 07:47:14 51°12.731 2°49.836 22.276 0.048382 0.250684 32.534996
2009-09-09 07:47:19 51°12.74 2°49.851 22.2635 0.050955 0.264294 32.534996
2009-09-09 07:47:25 51°12.749 2°49.869 22.27 0.050955 0.264294 32.534996
2009-09-09 07:47:29 51°12.755 2°49.882 22.2684 0.047147 0.244152 32.56982
2009-09-09 07:47:34 51°12.763 2°49.897 22.2735 0.049823 0.258297 32.500171
2009-09-09 07:47:39 51°12.771 2°49.913 22.2764 0.048999 0.253986 32.534996
2009-09-09 07:47:45 51°12.781 2°49.932 22.2738 0.050131 0.260038 32.534996
2009-09-09 07:47:49 51°12.787 2°49.944 22.2868 0.05044 0.261662 32.465347
2009-09-09 07:47:54 51°12.795 2°49.961 22.2888 0.05044 0.261662 32.465347
2009-09-09 07:47:59 51°12.803 2°49.976 22.274 0.047559 0.246402 32.500171
2009-09-09 07:48:05 51°12.813 2°49.994 22.2734 0.046838 0.24259 32.56982
2009-09-09 07:48:09 51°12.819 2°50.006 22.2887 0.048896 0.253475 32.500171
2009-09-09 07:48:14 51°12.827 2°50.022 22.2799 0.048176 0.249632 32.534996
2009-09-09 07:48:19 51°12.835 2°50.037 22.2888 0.04725 0.244719 32.500171
2009-09-09 07:48:24 51°12.843 2°50.053 22.2855 0.04725 0.244719 32.500171
2009-09-09 07:48:29 51°12.851 2°50.068 22.2875 0.049102 0.25451 32.465347
2009-09-09 07:48:34 51°12.858 2°50.084 22.2833 0.048073 0.249084 32.604644
2009-09-09 07:48:39 51°12.866 2°50.099 22.2838 0.050131 0.259996 32.465347
2009-09-09 07:48:45 51°12.876 2°50.117 22.2862 0.047353 0.245335 32.534996
2009-09-09 07:48:49 51°12.882 2°50.13 22.2863 0.048999 0.254044 32.465347
2009-09-09 07:48:54 51°12.89 2°50.145 22.2806 0.048999 0.254044 32.465347
2009-09-09 07:48:59 51°12.897 2°50.161 22.2799 0.047147 0.24424 32.56982
2009-09-09 07:49:05 51°12.907 2°50.179 22.2928 0.049925 0.258901 32.465347
2009-09-09 07:49:09 51°12.914 2°50.192 22.2782 0.048588 0.251825 32.534996
2009-09-09 07:49:14 51°12.922 2°50.207 22.2817 0.050337 0.26109 32.500171
2009-09-09 07:49:19 51°12.93 2°50.222 22.2928 0.049823 0.258373 32.500171
2009-09-09 07:49:25 51°12.94 2°50.241 22.294 0.049823 0.258373 32.500171
2009-09-09 07:49:29 51°12.946 2°50.254 22.2845 0.049823 0.258377 32.848412
2009-09-09 07:49:34 51°12.954 2°50.269 22.3054 0.050234 0.260562 33.022532
2009-09-09 07:49:39 51°12.962 2°50.285 22.294 0.049308 0.255661 33.161829
2009-09-09 07:49:45 51°12.971 2°50.303 22.2943 0.050749 0.263289 33.09218
2009-09-09 07:49:49 51°12.978 2°50.315 22.2892 0.049617 0.257287 33.127004
2009-09-09 07:49:54 51°12.986 2°50.331 22.2966 0.049617 0.257287 33.127004
2009-09-09 07:49:59 51°12.994 2°50.346 22.2973 0.048382 0.250753 33.09218
2009-09-09 07:50:05 51°13.004 2°50.365 22.2868 0.049925 0.258914 33.127004
2009-09-09 07:50:09 51°13.01 2°50.378 22.2949 0.051881 0.269286 33.057356
2009-09-09 07:50:14 51°13.018 2°50.394 22.3046 0.05044 0.261674 33.161829
2009-09-09 07:50:19 51°13.026 2°50.409 22.294 0.050646 0.26277 33.127004
2009-09-09 07:50:24 51°13.034 2°50.425 22.3089 0.050646 0.26277 33.127004
2009-09-09 07:50:29 51°13.042 2°50.441 22.294 0.048793 0.252959 33.057356
2009-09-09 07:50:34 51°13.05 2°50.456 22.3038 0.050028 0.25954 33.057356
2009-09-09 07:50:39 51°13.057 2°50.472 22.3012 0.050234 0.26066 33.127004
2009-09-09 07:50:44 51°13.065 2°50.487 22.3058 0.049514 0.256827 33.161829
2009-09-09 07:50:49 51°13.073 2°50.502 22.3031 0.048999 0.254061 33.196653
2009-09-09 07:50:54 51°13.08 2°50.518 22.3032 0.048999 0.254061 33.196653
2009-09-09 07:50:59 51°13.088 2°50.534 22.3069 0.05044 0.261674 33.127004
2009-09-09 07:51:04 51°13.096 2°50.549 22.295 0.04972 0.257858 33.161829
2009-09-09 07:51:09 51°13.104 2°50.565 22.3023 0.049205 0.255163 33.09218
2009-09-09 07:51:14 51°13.112 2°50.58 22.3152 0.05044 0.261692 33.161829
2009-09-09 07:51:19 51°13.12 2°50.596 22.3148 0.049925 0.258995 33.09218
2009-09-09 07:51:25 51°13.129 2°50.614 22.3009 0.049925 0.258995 33.09218
2009-09-09 07:51:29 51°13.135 2°50.626 22.3005 0.050028 0.259527 33.161829
2009-09-09 07:51:34 51°13.143 2°50.642 22.3141 0.049411 0.256265 33.09218
2009-09-09 07:51:39 51°13.151 2°50.658 22.3041 0.048896 0.253578 33.09218
2009-09-09 07:51:45 51°13.161 2°50.676 22.3143 0.052087 0.270462 33.161829
2009-09-09 07:51:49 51°13.167 2°50.689 22.3139 0.049823 0.258496 33.09218
2009-09-09 07:51:54 51°13.174 2°50.705 22.3031 0.049823 0.258496 33.09218
2009-09-09 07:51:59 51°13.182 2°50.72 22.3112 0.049823 0.258483 33.127004
2009-09-09 07:52:05 51°13.19 2°50.741 22.3204 0.050131 0.260111 33.057356
2009-09-09 07:52:09 51°13.196 2°50.753 22.3151 0.05291 0.274891 33.127004
2009-09-09 07:52:14 51°13.202 2°50.77 22.3163 0.050028 0.259587 33.127004